<?xml version="1.0" encoding="UTF-8" standalone="no" ?>
<gpx xmlns="http://www.topografix.com/GPX/1/1" xmlns:xsi="http://www.w3.org/2001/XMLSchema-instance" xsi:schemaLocation="http://www.topografix.com/GPX/1/1 http://www.topografix.com/GPX/1/1/gpx.xsd" version="1.1" creator="VisuGPX - https://www.visugpx.com">
  <metadata>
    <name>56k St Aubin des Ormeaux édité par cth85.com</name>
    <desc><![CDATA[Les Herbiers  Les Peux
 La Gaubretière
St Martin des Tilleuls
St Aubin des Ormeaux
Direction St Christophe
A/d Le Coudavid / le Cou
1ère a/g Croix Coudrinière
A/d La Marquisière stop a/d
Rond point a/g Le Landreau
Stop a/gauche et 2ème a/d
La Grande Brosse
Stop a/gauche  St Malô
a/g Puy du Fou / Les Epesses
La Cossonnière /Ardelay
Les Herbiers
]]></desc>
  </metadata>
  <trk>
    <name><![CDATA[56k St Aubin des Ormeaux on GPSies.com]]></name>
    <trkseg>
      <trkpt lat="46.86528" lon="-1.00522">
        <ele>120</ele>
        <time>2010-01-01T00:00:00Z</time>
      </trkpt>
      <trkpt lat="46.86536" lon="-1.00584">
        <ele>117</ele>
        <time>2010-01-01T00:00:17Z</time>
      </trkpt>
      <trkpt lat="46.8661" lon="-1.00628">
        <ele>115</ele>
        <time>2010-01-01T00:00:49Z</time>
      </trkpt>
      <trkpt lat="46.86729" lon="-1.00668">
        <ele>112</ele>
        <time>2010-01-01T00:01:38Z</time>
      </trkpt>
      <trkpt lat="46.86732" lon="-1.00779">
        <ele>109</ele>
        <time>2010-01-01T00:02:08Z</time>
      </trkpt>
      <trkpt lat="46.86653" lon="-1.00881">
        <ele>111</ele>
        <time>2010-01-01T00:02:50Z</time>
      </trkpt>
      <trkpt lat="46.86601" lon="-1.00939">
        <ele>110</ele>
        <time>2010-01-01T00:03:16Z</time>
      </trkpt>
      <trkpt lat="46.86577" lon="-1.00955">
        <ele>110</ele>
        <time>2010-01-01T00:03:27Z</time>
      </trkpt>
      <trkpt lat="46.86586" lon="-1.01014">
        <ele>110</ele>
        <time>2010-01-01T00:03:44Z</time>
      </trkpt>
      <trkpt lat="46.86613" lon="-1.01045">
        <ele>108</ele>
        <time>2010-01-01T00:03:57Z</time>
      </trkpt>
      <trkpt lat="46.86666" lon="-1.01113">
        <ele>107</ele>
        <time>2010-01-01T00:04:25Z</time>
      </trkpt>
      <trkpt lat="46.8669" lon="-1.01257">
        <ele>109</ele>
        <time>2010-01-01T00:05:06Z</time>
      </trkpt>
      <trkpt lat="46.86701" lon="-1.01308">
        <ele>109</ele>
        <time>2010-01-01T00:05:21Z</time>
      </trkpt>
      <trkpt lat="46.8672" lon="-1.01373">
        <ele>112</ele>
        <time>2010-01-01T00:05:40Z</time>
      </trkpt>
      <trkpt lat="46.86724" lon="-1.01379">
        <ele>113</ele>
        <time>2010-01-01T00:05:42Z</time>
      </trkpt>
      <trkpt lat="46.86723" lon="-1.01387">
        <ele>113</ele>
        <time>2010-01-01T00:05:45Z</time>
      </trkpt>
      <trkpt lat="46.86753" lon="-1.01408">
        <ele>113</ele>
        <time>2010-01-01T00:05:58Z</time>
      </trkpt>
      <trkpt lat="46.86776" lon="-1.01435">
        <ele>112</ele>
        <time>2010-01-01T00:06:10Z</time>
      </trkpt>
      <trkpt lat="46.86813" lon="-1.01466">
        <ele>111</ele>
        <time>2010-01-01T00:06:27Z</time>
      </trkpt>
      <trkpt lat="46.86866" lon="-1.01487">
        <ele>109</ele>
        <time>2010-01-01T00:06:49Z</time>
      </trkpt>
      <trkpt lat="46.86895" lon="-1.01496">
        <ele>106</ele>
        <time>2010-01-01T00:07:01Z</time>
      </trkpt>
      <trkpt lat="46.86987" lon="-1.01576">
        <ele>101</ele>
        <time>2010-01-01T00:07:43Z</time>
      </trkpt>
      <trkpt lat="46.87009" lon="-1.01577">
        <ele>102</ele>
        <time>2010-01-01T00:07:52Z</time>
      </trkpt>
      <trkpt lat="46.87006" lon="-1.01616">
        <ele>102</ele>
        <time>2010-01-01T00:08:03Z</time>
      </trkpt>
      <trkpt lat="46.87026" lon="-1.01627">
        <ele>104</ele>
        <time>2010-01-01T00:08:12Z</time>
      </trkpt>
      <trkpt lat="46.87026" lon="-1.01632">
        <ele>104</ele>
        <time>2010-01-01T00:08:13Z</time>
      </trkpt>
      <trkpt lat="46.87084" lon="-1.01654">
        <ele>112</ele>
        <time>2010-01-01T00:08:37Z</time>
      </trkpt>
      <trkpt lat="46.87085" lon="-1.01654">
        <ele>112</ele>
        <time>2010-01-01T00:08:37Z</time>
      </trkpt>
      <trkpt lat="46.87076" lon="-1.01715">
        <ele>112</ele>
        <time>2010-01-01T00:08:54Z</time>
      </trkpt>
      <trkpt lat="46.8709" lon="-1.01716">
        <ele>112</ele>
        <time>2010-01-01T00:09:00Z</time>
      </trkpt>
      <trkpt lat="46.87192" lon="-1.01786">
        <ele>115</ele>
        <time>2010-01-01T00:09:45Z</time>
      </trkpt>
      <trkpt lat="46.87387" lon="-1.01935">
        <ele>110</ele>
        <time>2010-01-01T00:11:13Z</time>
      </trkpt>
      <trkpt lat="46.87635" lon="-1.02118">
        <ele>118</ele>
        <time>2010-01-01T00:13:04Z</time>
      </trkpt>
      <trkpt lat="46.87696" lon="-1.02168">
        <ele>116</ele>
        <time>2010-01-01T00:13:32Z</time>
      </trkpt>
      <trkpt lat="46.8787" lon="-1.02296">
        <ele>120</ele>
        <time>2010-01-01T00:14:50Z</time>
      </trkpt>
      <trkpt lat="46.87986" lon="-1.0239">
        <ele>118</ele>
        <time>2010-01-01T00:15:43Z</time>
      </trkpt>
      <trkpt lat="46.88147" lon="-1.02505">
        <ele>120</ele>
        <time>2010-01-01T00:16:55Z</time>
      </trkpt>
      <trkpt lat="46.88177" lon="-1.02522">
        <ele>121</ele>
        <time>2010-01-01T00:17:08Z</time>
      </trkpt>
      <trkpt lat="46.88186" lon="-1.02515">
        <ele>121</ele>
        <time>2010-01-01T00:17:12Z</time>
      </trkpt>
      <trkpt lat="46.88192" lon="-1.02516">
        <ele>121</ele>
        <time>2010-01-01T00:17:14Z</time>
      </trkpt>
      <trkpt lat="46.88199" lon="-1.02527">
        <ele>121</ele>
        <time>2010-01-01T00:17:19Z</time>
      </trkpt>
      <trkpt lat="46.88199" lon="-1.02539">
        <ele>120</ele>
        <time>2010-01-01T00:17:22Z</time>
      </trkpt>
      <trkpt lat="46.88214" lon="-1.02549">
        <ele>120</ele>
        <time>2010-01-01T00:17:28Z</time>
      </trkpt>
      <trkpt lat="46.88217" lon="-1.02559">
        <ele>120</ele>
        <time>2010-01-01T00:17:31Z</time>
      </trkpt>
      <trkpt lat="46.88704" lon="-1.02924">
        <ele>127</ele>
        <time>2010-01-01T00:21:10Z</time>
      </trkpt>
      <trkpt lat="46.88737" lon="-1.02955">
        <ele>126</ele>
        <time>2010-01-01T00:21:26Z</time>
      </trkpt>
      <trkpt lat="46.88779" lon="-1.03011">
        <ele>124</ele>
        <time>2010-01-01T00:21:49Z</time>
      </trkpt>
      <trkpt lat="46.88807" lon="-1.03057">
        <ele>123</ele>
        <time>2010-01-01T00:22:06Z</time>
      </trkpt>
      <trkpt lat="46.88836" lon="-1.03134">
        <ele>123</ele>
        <time>2010-01-01T00:22:30Z</time>
      </trkpt>
      <trkpt lat="46.88877" lon="-1.03113">
        <ele>124</ele>
        <time>2010-01-01T00:22:47Z</time>
      </trkpt>
      <trkpt lat="46.88908" lon="-1.03105">
        <ele>124</ele>
        <time>2010-01-01T00:23:00Z</time>
      </trkpt>
      <trkpt lat="46.88939" lon="-1.0311">
        <ele>124</ele>
        <time>2010-01-01T00:23:12Z</time>
      </trkpt>
      <trkpt lat="46.88968" lon="-1.03125">
        <ele>124</ele>
        <time>2010-01-01T00:23:25Z</time>
      </trkpt>
      <trkpt lat="46.89921" lon="-1.03842">
        <ele>128</ele>
        <time>2010-01-01T00:30:34Z</time>
      </trkpt>
      <trkpt lat="46.90074" lon="-1.03954">
        <ele>128</ele>
        <time>2010-01-01T00:31:42Z</time>
      </trkpt>
      <trkpt lat="46.90126" lon="-1.04001">
        <ele>126</ele>
        <time>2010-01-01T00:32:06Z</time>
      </trkpt>
      <trkpt lat="46.90155" lon="-1.04042">
        <ele>124</ele>
        <time>2010-01-01T00:32:23Z</time>
      </trkpt>
      <trkpt lat="46.90173" lon="-1.04032">
        <ele>124</ele>
        <time>2010-01-01T00:32:30Z</time>
      </trkpt>
      <trkpt lat="46.90186" lon="-1.04032">
        <ele>124</ele>
        <time>2010-01-01T00:32:36Z</time>
      </trkpt>
      <trkpt lat="46.90269" lon="-1.04084">
        <ele>122</ele>
        <time>2010-01-01T00:33:12Z</time>
      </trkpt>
      <trkpt lat="46.90436" lon="-1.04165">
        <ele>127</ele>
        <time>2010-01-01T00:34:22Z</time>
      </trkpt>
      <trkpt lat="46.90545" lon="-1.04193">
        <ele>127</ele>
        <time>2010-01-01T00:35:06Z</time>
      </trkpt>
      <trkpt lat="46.90614" lon="-1.04201">
        <ele>130</ele>
        <time>2010-01-01T00:35:34Z</time>
      </trkpt>
      <trkpt lat="46.90668" lon="-1.04201">
        <ele>129</ele>
        <time>2010-01-01T00:35:56Z</time>
      </trkpt>
      <trkpt lat="46.9076" lon="-1.04184">
        <ele>128</ele>
        <time>2010-01-01T00:36:33Z</time>
      </trkpt>
      <trkpt lat="46.90793" lon="-1.04171">
        <ele>127</ele>
        <time>2010-01-01T00:36:47Z</time>
      </trkpt>
      <trkpt lat="46.90917" lon="-1.04066">
        <ele>127</ele>
        <time>2010-01-01T00:37:44Z</time>
      </trkpt>
      <trkpt lat="46.90955" lon="-1.0405">
        <ele>126</ele>
        <time>2010-01-01T00:38:00Z</time>
      </trkpt>
      <trkpt lat="46.90984" lon="-1.04049">
        <ele>124</ele>
        <time>2010-01-01T00:38:11Z</time>
      </trkpt>
      <trkpt lat="46.91022" lon="-1.04058">
        <ele>122</ele>
        <time>2010-01-01T00:38:27Z</time>
      </trkpt>
      <trkpt lat="46.91107" lon="-1.04095">
        <ele>121</ele>
        <time>2010-01-01T00:39:02Z</time>
      </trkpt>
      <trkpt lat="46.91183" lon="-1.04132">
        <ele>116</ele>
        <time>2010-01-01T00:39:34Z</time>
      </trkpt>
      <trkpt lat="46.91216" lon="-1.04156">
        <ele>118</ele>
        <time>2010-01-01T00:39:49Z</time>
      </trkpt>
      <trkpt lat="46.91259" lon="-1.042">
        <ele>121</ele>
        <time>2010-01-01T00:40:10Z</time>
      </trkpt>
      <trkpt lat="46.91302" lon="-1.04253">
        <ele>124</ele>
        <time>2010-01-01T00:40:33Z</time>
      </trkpt>
      <trkpt lat="46.91355" lon="-1.04354">
        <ele>126</ele>
        <time>2010-01-01T00:41:07Z</time>
      </trkpt>
      <trkpt lat="46.91417" lon="-1.04498">
        <ele>133</ele>
        <time>2010-01-01T00:41:54Z</time>
      </trkpt>
      <trkpt lat="46.91492" lon="-1.04606">
        <ele>134</ele>
        <time>2010-01-01T00:42:36Z</time>
      </trkpt>
      <trkpt lat="46.91478" lon="-1.0466">
        <ele>133</ele>
        <time>2010-01-01T00:42:52Z</time>
      </trkpt>
      <trkpt lat="46.91622" lon="-1.04731">
        <ele>139</ele>
        <time>2010-01-01T00:43:53Z</time>
      </trkpt>
      <trkpt lat="46.91836" lon="-1.04851">
        <ele>150</ele>
        <time>2010-01-01T00:45:24Z</time>
      </trkpt>
      <trkpt lat="46.92866" lon="-1.05355">
        <ele>178</ele>
        <time>2010-01-01T00:52:39Z</time>
      </trkpt>
      <trkpt lat="46.93096" lon="-1.05469">
        <ele>182</ele>
        <time>2010-01-01T00:54:16Z</time>
      </trkpt>
      <trkpt lat="46.93138" lon="-1.05479">
        <ele>181</ele>
        <time>2010-01-01T00:54:33Z</time>
      </trkpt>
      <trkpt lat="46.93173" lon="-1.05472">
        <ele>183</ele>
        <time>2010-01-01T00:54:47Z</time>
      </trkpt>
      <trkpt lat="46.93183" lon="-1.0548">
        <ele>183</ele>
        <time>2010-01-01T00:54:52Z</time>
      </trkpt>
      <trkpt lat="46.93193" lon="-1.05504">
        <ele>183</ele>
        <time>2010-01-01T00:55:00Z</time>
      </trkpt>
      <trkpt lat="46.93236" lon="-1.05536">
        <ele>184</ele>
        <time>2010-01-01T00:55:19Z</time>
      </trkpt>
      <trkpt lat="46.93404" lon="-1.05616">
        <ele>187</ele>
        <time>2010-01-01T00:56:30Z</time>
      </trkpt>
      <trkpt lat="46.93453" lon="-1.05634">
        <ele>188</ele>
        <time>2010-01-01T00:56:50Z</time>
      </trkpt>
      <trkpt lat="46.93565" lon="-1.05664">
        <ele>185</ele>
        <time>2010-01-01T00:57:36Z</time>
      </trkpt>
      <trkpt lat="46.93622" lon="-1.05698">
        <ele>183</ele>
        <time>2010-01-01T00:58:00Z</time>
      </trkpt>
      <trkpt lat="46.93703" lon="-1.05758">
        <ele>177</ele>
        <time>2010-01-01T00:58:37Z</time>
      </trkpt>
      <trkpt lat="46.93719" lon="-1.05776">
        <ele>176</ele>
        <time>2010-01-01T00:58:45Z</time>
      </trkpt>
      <trkpt lat="46.93756" lon="-1.05845">
        <ele>174</ele>
        <time>2010-01-01T00:59:09Z</time>
      </trkpt>
      <trkpt lat="46.9377" lon="-1.0589">
        <ele>174</ele>
        <time>2010-01-01T00:59:22Z</time>
      </trkpt>
      <trkpt lat="46.9379" lon="-1.05998">
        <ele>172</ele>
        <time>2010-01-01T00:59:53Z</time>
      </trkpt>
      <trkpt lat="46.93823" lon="-1.06075">
        <ele>170</ele>
        <time>2010-01-01T01:00:18Z</time>
      </trkpt>
      <trkpt lat="46.93857" lon="-1.06128">
        <ele>167</ele>
        <time>2010-01-01T01:00:37Z</time>
      </trkpt>
      <trkpt lat="46.93907" lon="-1.06185">
        <ele>165</ele>
        <time>2010-01-01T01:01:03Z</time>
      </trkpt>
      <trkpt lat="46.93945" lon="-1.06216">
        <ele>166</ele>
        <time>2010-01-01T01:01:20Z</time>
      </trkpt>
      <trkpt lat="46.9404" lon="-1.06265">
        <ele>162</ele>
        <time>2010-01-01T01:02:00Z</time>
      </trkpt>
      <trkpt lat="46.94103" lon="-1.06307">
        <ele>157</ele>
        <time>2010-01-01T01:02:28Z</time>
      </trkpt>
      <trkpt lat="46.94124" lon="-1.06328">
        <ele>156</ele>
        <time>2010-01-01T01:02:38Z</time>
      </trkpt>
      <trkpt lat="46.94158" lon="-1.06389">
        <ele>153</ele>
        <time>2010-01-01T01:03:00Z</time>
      </trkpt>
      <trkpt lat="46.94249" lon="-1.06444">
        <ele>149</ele>
        <time>2010-01-01T01:03:39Z</time>
      </trkpt>
      <trkpt lat="46.94271" lon="-1.06489">
        <ele>147</ele>
        <time>2010-01-01T01:03:54Z</time>
      </trkpt>
      <trkpt lat="46.94286" lon="-1.06494">
        <ele>147</ele>
        <time>2010-01-01T01:04:01Z</time>
      </trkpt>
      <trkpt lat="46.94316" lon="-1.06493">
        <ele>146</ele>
        <time>2010-01-01T01:04:13Z</time>
      </trkpt>
      <trkpt lat="46.9433" lon="-1.065">
        <ele>145</ele>
        <time>2010-01-01T01:04:19Z</time>
      </trkpt>
      <trkpt lat="46.9434" lon="-1.06512">
        <ele>143</ele>
        <time>2010-01-01T01:04:24Z</time>
      </trkpt>
      <trkpt lat="46.94458" lon="-1.06721">
        <ele>134</ele>
        <time>2010-01-01T01:05:38Z</time>
      </trkpt>
      <trkpt lat="46.94485" lon="-1.06758">
        <ele>132</ele>
        <time>2010-01-01T01:05:53Z</time>
      </trkpt>
      <trkpt lat="46.9449" lon="-1.06761">
        <ele>132</ele>
        <time>2010-01-01T01:05:55Z</time>
      </trkpt>
      <trkpt lat="46.94601" lon="-1.06651">
        <ele>124</ele>
        <time>2010-01-01T01:06:48Z</time>
      </trkpt>
      <trkpt lat="46.94622" lon="-1.06621">
        <ele>123</ele>
        <time>2010-01-01T01:07:00Z</time>
      </trkpt>
      <trkpt lat="46.94635" lon="-1.06584">
        <ele>124</ele>
        <time>2010-01-01T01:07:12Z</time>
      </trkpt>
      <trkpt lat="46.9464" lon="-1.06536">
        <ele>123</ele>
        <time>2010-01-01T01:07:25Z</time>
      </trkpt>
      <trkpt lat="46.94628" lon="-1.06473">
        <ele>124</ele>
        <time>2010-01-01T01:07:43Z</time>
      </trkpt>
      <trkpt lat="46.94743" lon="-1.06423">
        <ele>126</ele>
        <time>2010-01-01T01:08:31Z</time>
      </trkpt>
      <trkpt lat="46.94769" lon="-1.06402">
        <ele>131</ele>
        <time>2010-01-01T01:08:43Z</time>
      </trkpt>
      <trkpt lat="46.94804" lon="-1.06363">
        <ele>136</ele>
        <time>2010-01-01T01:09:00Z</time>
      </trkpt>
      <trkpt lat="46.9491" lon="-1.06245">
        <ele>141</ele>
        <time>2010-01-01T01:09:53Z</time>
      </trkpt>
      <trkpt lat="46.94973" lon="-1.06188">
        <ele>137</ele>
        <time>2010-01-01T01:10:23Z</time>
      </trkpt>
      <trkpt lat="46.95088" lon="-1.06114">
        <ele>135</ele>
        <time>2010-01-01T01:11:13Z</time>
      </trkpt>
      <trkpt lat="46.95174" lon="-1.06081">
        <ele>132</ele>
        <time>2010-01-01T01:11:49Z</time>
      </trkpt>
      <trkpt lat="46.95224" lon="-1.06029">
        <ele>131</ele>
        <time>2010-01-01T01:12:14Z</time>
      </trkpt>
      <trkpt lat="46.95318" lon="-1.05902">
        <ele>127</ele>
        <time>2010-01-01T01:13:05Z</time>
      </trkpt>
      <trkpt lat="46.9535" lon="-1.05867">
        <ele>126</ele>
        <time>2010-01-01T01:13:21Z</time>
      </trkpt>
      <trkpt lat="46.95413" lon="-1.05764">
        <ele>122</ele>
        <time>2010-01-01T01:13:59Z</time>
      </trkpt>
      <trkpt lat="46.95439" lon="-1.05746">
        <ele>122</ele>
        <time>2010-01-01T01:14:10Z</time>
      </trkpt>
      <trkpt lat="46.95492" lon="-1.05727">
        <ele>124</ele>
        <time>2010-01-01T01:14:32Z</time>
      </trkpt>
      <trkpt lat="46.95531" lon="-1.057">
        <ele>125</ele>
        <time>2010-01-01T01:14:49Z</time>
      </trkpt>
      <trkpt lat="46.95602" lon="-1.05687">
        <ele>126</ele>
        <time>2010-01-01T01:15:18Z</time>
      </trkpt>
      <trkpt lat="46.95695" lon="-1.05764">
        <ele>124</ele>
        <time>2010-01-01T01:16:01Z</time>
      </trkpt>
      <trkpt lat="46.95733" lon="-1.05776">
        <ele>123</ele>
        <time>2010-01-01T01:16:16Z</time>
      </trkpt>
      <trkpt lat="46.95835" lon="-1.05762">
        <ele>121</ele>
        <time>2010-01-01T01:16:57Z</time>
      </trkpt>
      <trkpt lat="46.95876" lon="-1.05743">
        <ele>118</ele>
        <time>2010-01-01T01:17:14Z</time>
      </trkpt>
      <trkpt lat="46.959" lon="-1.05724">
        <ele>115</ele>
        <time>2010-01-01T01:17:25Z</time>
      </trkpt>
      <trkpt lat="46.96091" lon="-1.05544">
        <ele>109</ele>
        <time>2010-01-01T01:18:56Z</time>
      </trkpt>
      <trkpt lat="46.96181" lon="-1.05477">
        <ele>116</ele>
        <time>2010-01-01T01:19:37Z</time>
      </trkpt>
      <trkpt lat="46.96195" lon="-1.05471">
        <ele>116</ele>
        <time>2010-01-01T01:19:42Z</time>
      </trkpt>
      <trkpt lat="46.96207" lon="-1.0547">
        <ele>117</ele>
        <time>2010-01-01T01:19:47Z</time>
      </trkpt>
      <trkpt lat="46.96239" lon="-1.05481">
        <ele>120</ele>
        <time>2010-01-01T01:20:00Z</time>
      </trkpt>
      <trkpt lat="46.96382" lon="-1.0555">
        <ele>127</ele>
        <time>2010-01-01T01:21:01Z</time>
      </trkpt>
      <trkpt lat="46.96455" lon="-1.0558">
        <ele>126</ele>
        <time>2010-01-01T01:21:31Z</time>
      </trkpt>
      <trkpt lat="46.965" lon="-1.05576">
        <ele>125</ele>
        <time>2010-01-01T01:21:49Z</time>
      </trkpt>
      <trkpt lat="46.96562" lon="-1.0556">
        <ele>123</ele>
        <time>2010-01-01T01:22:14Z</time>
      </trkpt>
      <trkpt lat="46.96624" lon="-1.05519">
        <ele>124</ele>
        <time>2010-01-01T01:22:41Z</time>
      </trkpt>
      <trkpt lat="46.96741" lon="-1.05436">
        <ele>126</ele>
        <time>2010-01-01T01:23:33Z</time>
      </trkpt>
      <trkpt lat="46.96858" lon="-1.05336">
        <ele>126</ele>
        <time>2010-01-01T01:24:28Z</time>
      </trkpt>
      <trkpt lat="46.9688" lon="-1.05325">
        <ele>127</ele>
        <time>2010-01-01T01:24:37Z</time>
      </trkpt>
      <trkpt lat="46.96939" lon="-1.05309">
        <ele>126</ele>
        <time>2010-01-01T01:25:01Z</time>
      </trkpt>
      <trkpt lat="46.97015" lon="-1.05327">
        <ele>123</ele>
        <time>2010-01-01T01:25:32Z</time>
      </trkpt>
      <trkpt lat="46.97031" lon="-1.05326">
        <ele>122</ele>
        <time>2010-01-01T01:25:38Z</time>
      </trkpt>
      <trkpt lat="46.97114" lon="-1.05295">
        <ele>120</ele>
        <time>2010-01-01T01:26:13Z</time>
      </trkpt>
      <trkpt lat="46.9717" lon="-1.05285">
        <ele>119</ele>
        <time>2010-01-01T01:26:35Z</time>
      </trkpt>
      <trkpt lat="46.9721" lon="-1.05285">
        <ele>119</ele>
        <time>2010-01-01T01:26:51Z</time>
      </trkpt>
      <trkpt lat="46.97301" lon="-1.05301">
        <ele>123</ele>
        <time>2010-01-01T01:27:28Z</time>
      </trkpt>
      <trkpt lat="46.97381" lon="-1.0534">
        <ele>122</ele>
        <time>2010-01-01T01:28:02Z</time>
      </trkpt>
      <trkpt lat="46.97381" lon="-1.05196">
        <ele>123</ele>
        <time>2010-01-01T01:28:41Z</time>
      </trkpt>
      <trkpt lat="46.97482" lon="-1.05173">
        <ele>121</ele>
        <time>2010-01-01T01:29:22Z</time>
      </trkpt>
      <trkpt lat="46.97604" lon="-1.05197">
        <ele>118</ele>
        <time>2010-01-01T01:30:11Z</time>
      </trkpt>
      <trkpt lat="46.97659" lon="-1.05203">
        <ele>118</ele>
        <time>2010-01-01T01:30:33Z</time>
      </trkpt>
      <trkpt lat="46.97688" lon="-1.05195">
        <ele>118</ele>
        <time>2010-01-01T01:30:45Z</time>
      </trkpt>
      <trkpt lat="46.97795" lon="-1.05141">
        <ele>114</ele>
        <time>2010-01-01T01:31:30Z</time>
      </trkpt>
      <trkpt lat="46.97822" lon="-1.05134">
        <ele>113</ele>
        <time>2010-01-01T01:31:41Z</time>
      </trkpt>
      <trkpt lat="46.97857" lon="-1.0514">
        <ele>111</ele>
        <time>2010-01-01T01:31:55Z</time>
      </trkpt>
      <trkpt lat="46.97893" lon="-1.05161">
        <ele>110</ele>
        <time>2010-01-01T01:32:11Z</time>
      </trkpt>
      <trkpt lat="46.97975" lon="-1.05218">
        <ele>109</ele>
        <time>2010-01-01T01:32:47Z</time>
      </trkpt>
      <trkpt lat="46.98" lon="-1.05227">
        <ele>109</ele>
        <time>2010-01-01T01:32:58Z</time>
      </trkpt>
      <trkpt lat="46.98041" lon="-1.05221">
        <ele>111</ele>
        <time>2010-01-01T01:33:14Z</time>
      </trkpt>
      <trkpt lat="46.98077" lon="-1.05196">
        <ele>111</ele>
        <time>2010-01-01T01:33:30Z</time>
      </trkpt>
      <trkpt lat="46.98189" lon="-1.05093">
        <ele>115</ele>
        <time>2010-01-01T01:34:23Z</time>
      </trkpt>
      <trkpt lat="46.98217" lon="-1.05073">
        <ele>115</ele>
        <time>2010-01-01T01:34:35Z</time>
      </trkpt>
      <trkpt lat="46.98243" lon="-1.05059">
        <ele>115</ele>
        <time>2010-01-01T01:34:46Z</time>
      </trkpt>
      <trkpt lat="46.98412" lon="-1.0501">
        <ele>115</ele>
        <time>2010-01-01T01:35:55Z</time>
      </trkpt>
      <trkpt lat="46.98451" lon="-1.04993">
        <ele>115</ele>
        <time>2010-01-01T01:36:12Z</time>
      </trkpt>
      <trkpt lat="46.98485" lon="-1.04968">
        <ele>116</ele>
        <time>2010-01-01T01:36:27Z</time>
      </trkpt>
      <trkpt lat="46.98677" lon="-1.04783">
        <ele>111</ele>
        <time>2010-01-01T01:37:59Z</time>
      </trkpt>
      <trkpt lat="46.9874" lon="-1.04749">
        <ele>108</ele>
        <time>2010-01-01T01:38:26Z</time>
      </trkpt>
      <trkpt lat="46.9877" lon="-1.04738">
        <ele>107</ele>
        <time>2010-01-01T01:38:38Z</time>
      </trkpt>
      <trkpt lat="46.98797" lon="-1.04734">
        <ele>107</ele>
        <time>2010-01-01T01:38:49Z</time>
      </trkpt>
      <trkpt lat="46.98876" lon="-1.04739">
        <ele>110</ele>
        <time>2010-01-01T01:39:21Z</time>
      </trkpt>
      <trkpt lat="46.98905" lon="-1.04727">
        <ele>113</ele>
        <time>2010-01-01T01:39:33Z</time>
      </trkpt>
      <trkpt lat="46.98923" lon="-1.04695">
        <ele>115</ele>
        <time>2010-01-01T01:39:44Z</time>
      </trkpt>
      <trkpt lat="46.98937" lon="-1.04641">
        <ele>118</ele>
        <time>2010-01-01T01:40:00Z</time>
      </trkpt>
      <trkpt lat="46.98964" lon="-1.04489">
        <ele>122</ele>
        <time>2010-01-01T01:40:43Z</time>
      </trkpt>
      <trkpt lat="46.98974" lon="-1.04452">
        <ele>124</ele>
        <time>2010-01-01T01:40:54Z</time>
      </trkpt>
      <trkpt lat="46.98992" lon="-1.04424">
        <ele>125</ele>
        <time>2010-01-01T01:41:04Z</time>
      </trkpt>
      <trkpt lat="46.99027" lon="-1.04405">
        <ele>128</ele>
        <time>2010-01-01T01:41:19Z</time>
      </trkpt>
      <trkpt lat="46.99043" lon="-1.04406">
        <ele>130</ele>
        <time>2010-01-01T01:41:25Z</time>
      </trkpt>
      <trkpt lat="46.99092" lon="-1.04442">
        <ele>133</ele>
        <time>2010-01-01T01:41:47Z</time>
      </trkpt>
      <trkpt lat="46.99114" lon="-1.04452">
        <ele>134</ele>
        <time>2010-01-01T01:41:57Z</time>
      </trkpt>
      <trkpt lat="46.99154" lon="-1.04455">
        <ele>135</ele>
        <time>2010-01-01T01:42:13Z</time>
      </trkpt>
      <trkpt lat="46.99165" lon="-1.04448">
        <ele>135</ele>
        <time>2010-01-01T01:42:17Z</time>
      </trkpt>
      <trkpt lat="46.99164" lon="-1.04442">
        <ele>135</ele>
        <time>2010-01-01T01:42:19Z</time>
      </trkpt>
      <trkpt lat="46.99169" lon="-1.04435">
        <ele>135</ele>
        <time>2010-01-01T01:42:22Z</time>
      </trkpt>
      <trkpt lat="46.99178" lon="-1.0444">
        <ele>135</ele>
        <time>2010-01-01T01:42:26Z</time>
      </trkpt>
      <trkpt lat="46.99207" lon="-1.044">
        <ele>134</ele>
        <time>2010-01-01T01:42:42Z</time>
      </trkpt>
      <trkpt lat="46.9926" lon="-1.04362">
        <ele>135</ele>
        <time>2010-01-01T01:43:05Z</time>
      </trkpt>
      <trkpt lat="46.99467" lon="-1.03711">
        <ele>139</ele>
        <time>2010-01-01T01:46:21Z</time>
      </trkpt>
      <trkpt lat="46.99503" lon="-1.036">
        <ele>138</ele>
        <time>2010-01-01T01:46:55Z</time>
      </trkpt>
      <trkpt lat="46.99501" lon="-1.03567">
        <ele>139</ele>
        <time>2010-01-01T01:47:04Z</time>
      </trkpt>
      <trkpt lat="46.99481" lon="-1.03431">
        <ele>138</ele>
        <time>2010-01-01T01:47:42Z</time>
      </trkpt>
      <trkpt lat="46.99477" lon="-1.03343">
        <ele>137</ele>
        <time>2010-01-01T01:48:06Z</time>
      </trkpt>
      <trkpt lat="46.99448" lon="-1.03283">
        <ele>137</ele>
        <time>2010-01-01T01:48:26Z</time>
      </trkpt>
      <trkpt lat="46.99401" lon="-1.03154">
        <ele>133</ele>
        <time>2010-01-01T01:49:06Z</time>
      </trkpt>
      <trkpt lat="46.99416" lon="-1.03122">
        <ele>133</ele>
        <time>2010-01-01T01:49:17Z</time>
      </trkpt>
      <trkpt lat="46.99475" lon="-1.03037">
        <ele>130</ele>
        <time>2010-01-01T01:49:50Z</time>
      </trkpt>
      <trkpt lat="46.99485" lon="-1.03006">
        <ele>130</ele>
        <time>2010-01-01T01:49:59Z</time>
      </trkpt>
      <trkpt lat="46.99503" lon="-1.02882">
        <ele>131</ele>
        <time>2010-01-01T01:50:34Z</time>
      </trkpt>
      <trkpt lat="46.9952" lon="-1.02808">
        <ele>130</ele>
        <time>2010-01-01T01:50:55Z</time>
      </trkpt>
      <trkpt lat="46.9952" lon="-1.02757">
        <ele>128</ele>
        <time>2010-01-01T01:51:09Z</time>
      </trkpt>
      <trkpt lat="46.99517" lon="-1.02695">
        <ele>128</ele>
        <time>2010-01-01T01:51:26Z</time>
      </trkpt>
      <trkpt lat="46.99505" lon="-1.02616">
        <ele>130</ele>
        <time>2010-01-01T01:51:48Z</time>
      </trkpt>
      <trkpt lat="46.99503" lon="-1.02571">
        <ele>129</ele>
        <time>2010-01-01T01:52:00Z</time>
      </trkpt>
      <trkpt lat="46.99533" lon="-1.02508">
        <ele>129</ele>
        <time>2010-01-01T01:52:21Z</time>
      </trkpt>
      <trkpt lat="46.99544" lon="-1.02472">
        <ele>127</ele>
        <time>2010-01-01T01:52:32Z</time>
      </trkpt>
      <trkpt lat="46.99553" lon="-1.02428">
        <ele>127</ele>
        <time>2010-01-01T01:52:45Z</time>
      </trkpt>
      <trkpt lat="46.9956" lon="-1.0232">
        <ele>128</ele>
        <time>2010-01-01T01:53:14Z</time>
      </trkpt>
      <trkpt lat="46.99575" lon="-1.0225">
        <ele>126</ele>
        <time>2010-01-01T01:53:34Z</time>
      </trkpt>
      <trkpt lat="46.99577" lon="-1.02224">
        <ele>125</ele>
        <time>2010-01-01T01:53:41Z</time>
      </trkpt>
      <trkpt lat="46.99523" lon="-1.01868">
        <ele>111</ele>
        <time>2010-01-01T01:55:21Z</time>
      </trkpt>
      <trkpt lat="46.99524" lon="-1.01835">
        <ele>109</ele>
        <time>2010-01-01T01:55:30Z</time>
      </trkpt>
      <trkpt lat="46.99539" lon="-1.01735">
        <ele>103</ele>
        <time>2010-01-01T01:55:58Z</time>
      </trkpt>
      <trkpt lat="46.99536" lon="-1.0168">
        <ele>101</ele>
        <time>2010-01-01T01:56:13Z</time>
      </trkpt>
      <trkpt lat="46.99525" lon="-1.01642">
        <ele>100</ele>
        <time>2010-01-01T01:56:24Z</time>
      </trkpt>
      <trkpt lat="46.99524" lon="-1.01613">
        <ele>101</ele>
        <time>2010-01-01T01:56:32Z</time>
      </trkpt>
      <trkpt lat="46.99526" lon="-1.01599">
        <ele>101</ele>
        <time>2010-01-01T01:56:36Z</time>
      </trkpt>
      <trkpt lat="46.99549" lon="-1.01547">
        <ele>100</ele>
        <time>2010-01-01T01:56:53Z</time>
      </trkpt>
      <trkpt lat="46.99593" lon="-1.01289">
        <ele>87</ele>
        <time>2010-01-01T01:58:06Z</time>
      </trkpt>
      <trkpt lat="46.99595" lon="-1.01266">
        <ele>86</ele>
        <time>2010-01-01T01:58:12Z</time>
      </trkpt>
      <trkpt lat="46.99591" lon="-1.01187">
        <ele>81</ele>
        <time>2010-01-01T01:58:34Z</time>
      </trkpt>
      <trkpt lat="46.99594" lon="-1.01172">
        <ele>81</ele>
        <time>2010-01-01T01:58:38Z</time>
      </trkpt>
      <trkpt lat="46.99632" lon="-1.01059">
        <ele>84</ele>
        <time>2010-01-01T01:59:12Z</time>
      </trkpt>
      <trkpt lat="46.9967" lon="-1.00965">
        <ele>92</ele>
        <time>2010-01-01T01:59:42Z</time>
      </trkpt>
      <trkpt lat="46.99738" lon="-1.00752">
        <ele>91</ele>
        <time>2010-01-01T02:00:46Z</time>
      </trkpt>
      <trkpt lat="46.9975" lon="-1.00659">
        <ele>90</ele>
        <time>2010-01-01T02:01:12Z</time>
      </trkpt>
      <trkpt lat="46.9975" lon="-1.00615">
        <ele>90</ele>
        <time>2010-01-01T02:01:24Z</time>
      </trkpt>
      <trkpt lat="46.99747" lon="-1.00606">
        <ele>91</ele>
        <time>2010-01-01T02:01:27Z</time>
      </trkpt>
      <trkpt lat="46.99708" lon="-1.00564">
        <ele>93</ele>
        <time>2010-01-01T02:01:46Z</time>
      </trkpt>
      <trkpt lat="46.99674" lon="-1.00513">
        <ele>95</ele>
        <time>2010-01-01T02:02:06Z</time>
      </trkpt>
      <trkpt lat="46.99594" lon="-1.0045">
        <ele>100</ele>
        <time>2010-01-01T02:02:42Z</time>
      </trkpt>
      <trkpt lat="46.99538" lon="-1.00418">
        <ele>101</ele>
        <time>2010-01-01T02:03:06Z</time>
      </trkpt>
      <trkpt lat="46.99512" lon="-1.0041">
        <ele>101</ele>
        <time>2010-01-01T02:03:17Z</time>
      </trkpt>
      <trkpt lat="46.99449" lon="-1.00413">
        <ele>104</ele>
        <time>2010-01-01T02:03:42Z</time>
      </trkpt>
      <trkpt lat="46.99439" lon="-1.00424">
        <ele>103</ele>
        <time>2010-01-01T02:03:47Z</time>
      </trkpt>
      <trkpt lat="46.99378" lon="-1.00629">
        <ele>104</ele>
        <time>2010-01-01T02:04:48Z</time>
      </trkpt>
      <trkpt lat="46.9936" lon="-1.00661">
        <ele>104</ele>
        <time>2010-01-01T02:05:00Z</time>
      </trkpt>
      <trkpt lat="46.99295" lon="-1.00691">
        <ele>102</ele>
        <time>2010-01-01T02:05:27Z</time>
      </trkpt>
      <trkpt lat="46.9926" lon="-1.00732">
        <ele>104</ele>
        <time>2010-01-01T02:05:45Z</time>
      </trkpt>
      <trkpt lat="46.99241" lon="-1.00743">
        <ele>105</ele>
        <time>2010-01-01T02:05:53Z</time>
      </trkpt>
      <trkpt lat="46.99101" lon="-1.00775">
        <ele>108</ele>
        <time>2010-01-01T02:06:50Z</time>
      </trkpt>
      <trkpt lat="46.99089" lon="-1.00775">
        <ele>108</ele>
        <time>2010-01-01T02:06:54Z</time>
      </trkpt>
      <trkpt lat="46.99067" lon="-1.00761">
        <ele>108</ele>
        <time>2010-01-01T02:07:04Z</time>
      </trkpt>
      <trkpt lat="46.99038" lon="-1.00726">
        <ele>108</ele>
        <time>2010-01-01T02:07:19Z</time>
      </trkpt>
      <trkpt lat="46.98992" lon="-1.00653">
        <ele>109</ele>
        <time>2010-01-01T02:07:46Z</time>
      </trkpt>
      <trkpt lat="46.98952" lon="-1.00617">
        <ele>109</ele>
        <time>2010-01-01T02:08:05Z</time>
      </trkpt>
      <trkpt lat="46.98821" lon="-1.0056">
        <ele>119</ele>
        <time>2010-01-01T02:09:00Z</time>
      </trkpt>
      <trkpt lat="46.9873" lon="-1.00528">
        <ele>124</ele>
        <time>2010-01-01T02:09:37Z</time>
      </trkpt>
      <trkpt lat="46.98669" lon="-1.00499">
        <ele>123</ele>
        <time>2010-01-01T02:10:03Z</time>
      </trkpt>
      <trkpt lat="46.98612" lon="-1.00484">
        <ele>125</ele>
        <time>2010-01-01T02:10:26Z</time>
      </trkpt>
      <trkpt lat="46.98566" lon="-1.00479">
        <ele>126</ele>
        <time>2010-01-01T02:10:44Z</time>
      </trkpt>
      <trkpt lat="46.98451" lon="-1.00481">
        <ele>122</ele>
        <time>2010-01-01T02:11:30Z</time>
      </trkpt>
      <trkpt lat="46.98377" lon="-1.00493">
        <ele>120</ele>
        <time>2010-01-01T02:12:00Z</time>
      </trkpt>
      <trkpt lat="46.9836" lon="-1.00509">
        <ele>120</ele>
        <time>2010-01-01T02:12:08Z</time>
      </trkpt>
      <trkpt lat="46.98348" lon="-1.00528">
        <ele>121</ele>
        <time>2010-01-01T02:12:15Z</time>
      </trkpt>
      <trkpt lat="46.98278" lon="-1.00659">
        <ele>120</ele>
        <time>2010-01-01T02:13:01Z</time>
      </trkpt>
      <trkpt lat="46.98213" lon="-1.00716">
        <ele>118</ele>
        <time>2010-01-01T02:13:31Z</time>
      </trkpt>
      <trkpt lat="46.98183" lon="-1.00732">
        <ele>116</ele>
        <time>2010-01-01T02:13:44Z</time>
      </trkpt>
      <trkpt lat="46.98111" lon="-1.00716">
        <ele>111</ele>
        <time>2010-01-01T02:14:13Z</time>
      </trkpt>
      <trkpt lat="46.98092" lon="-1.00706">
        <ele>111</ele>
        <time>2010-01-01T02:14:21Z</time>
      </trkpt>
      <trkpt lat="46.98087" lon="-1.00692">
        <ele>111</ele>
        <time>2010-01-01T02:14:26Z</time>
      </trkpt>
      <trkpt lat="46.9809" lon="-1.00654">
        <ele>111</ele>
        <time>2010-01-01T02:14:36Z</time>
      </trkpt>
      <trkpt lat="46.98086" lon="-1.00603">
        <ele>108</ele>
        <time>2010-01-01T02:14:50Z</time>
      </trkpt>
      <trkpt lat="46.98081" lon="-1.00586">
        <ele>106</ele>
        <time>2010-01-01T02:14:55Z</time>
      </trkpt>
      <trkpt lat="46.98068" lon="-1.00573">
        <ele>103</ele>
        <time>2010-01-01T02:15:01Z</time>
      </trkpt>
      <trkpt lat="46.98027" lon="-1.0056">
        <ele>98</ele>
        <time>2010-01-01T02:15:18Z</time>
      </trkpt>
      <trkpt lat="46.98012" lon="-1.00537">
        <ele>98</ele>
        <time>2010-01-01T02:15:27Z</time>
      </trkpt>
      <trkpt lat="46.98" lon="-1.00498">
        <ele>95</ele>
        <time>2010-01-01T02:15:39Z</time>
      </trkpt>
      <trkpt lat="46.97986" lon="-1.00481">
        <ele>93</ele>
        <time>2010-01-01T02:15:46Z</time>
      </trkpt>
      <trkpt lat="46.97957" lon="-1.00461">
        <ele>95</ele>
        <time>2010-01-01T02:15:59Z</time>
      </trkpt>
      <trkpt lat="46.9793" lon="-1.00441">
        <ele>100</ele>
        <time>2010-01-01T02:16:11Z</time>
      </trkpt>
      <trkpt lat="46.97901" lon="-1.00401">
        <ele>106</ele>
        <time>2010-01-01T02:16:27Z</time>
      </trkpt>
      <trkpt lat="46.97862" lon="-1.00371">
        <ele>110</ele>
        <time>2010-01-01T02:16:44Z</time>
      </trkpt>
      <trkpt lat="46.97837" lon="-1.00342">
        <ele>113</ele>
        <time>2010-01-01T02:16:57Z</time>
      </trkpt>
      <trkpt lat="46.97803" lon="-1.0023">
        <ele>120</ele>
        <time>2010-01-01T02:17:31Z</time>
      </trkpt>
      <trkpt lat="46.97792" lon="-1.00211">
        <ele>121</ele>
        <time>2010-01-01T02:17:37Z</time>
      </trkpt>
      <trkpt lat="46.97757" lon="-1.00166">
        <ele>122</ele>
        <time>2010-01-01T02:17:56Z</time>
      </trkpt>
      <trkpt lat="46.97689" lon="-1.001">
        <ele>125</ele>
        <time>2010-01-01T02:18:29Z</time>
      </trkpt>
      <trkpt lat="46.97674" lon="-1.00077">
        <ele>126</ele>
        <time>2010-01-01T02:18:37Z</time>
      </trkpt>
      <trkpt lat="46.97613" lon="-0.99908">
        <ele>129</ele>
        <time>2010-01-01T02:19:30Z</time>
      </trkpt>
      <trkpt lat="46.97606" lon="-0.99892">
        <ele>130</ele>
        <time>2010-01-01T02:19:35Z</time>
      </trkpt>
      <trkpt lat="46.97744" lon="-0.99819">
        <ele>127</ele>
        <time>2010-01-01T02:20:33Z</time>
      </trkpt>
      <trkpt lat="46.979" lon="-0.99771">
        <ele>123</ele>
        <time>2010-01-01T02:21:37Z</time>
      </trkpt>
      <trkpt lat="46.98036" lon="-0.99647">
        <ele>118</ele>
        <time>2010-01-01T02:22:41Z</time>
      </trkpt>
      <trkpt lat="46.98138" lon="-0.99525">
        <ele>119</ele>
        <time>2010-01-01T02:23:34Z</time>
      </trkpt>
      <trkpt lat="46.98202" lon="-0.99429">
        <ele>118</ele>
        <time>2010-01-01T02:24:11Z</time>
      </trkpt>
      <trkpt lat="46.9821" lon="-0.99402">
        <ele>117</ele>
        <time>2010-01-01T02:24:19Z</time>
      </trkpt>
      <trkpt lat="46.98229" lon="-0.99292">
        <ele>113</ele>
        <time>2010-01-01T02:24:50Z</time>
      </trkpt>
      <trkpt lat="46.98261" lon="-0.99206">
        <ele>112</ele>
        <time>2010-01-01T02:25:17Z</time>
      </trkpt>
      <trkpt lat="46.9826" lon="-0.99173">
        <ele>111</ele>
        <time>2010-01-01T02:25:26Z</time>
      </trkpt>
      <trkpt lat="46.98243" lon="-0.9906">
        <ele>106</ele>
        <time>2010-01-01T02:25:57Z</time>
      </trkpt>
      <trkpt lat="46.98266" lon="-0.98926">
        <ele>100</ele>
        <time>2010-01-01T02:26:35Z</time>
      </trkpt>
      <trkpt lat="46.98299" lon="-0.98831">
        <ele>95</ele>
        <time>2010-01-01T02:27:04Z</time>
      </trkpt>
      <trkpt lat="46.98312" lon="-0.98804">
        <ele>95</ele>
        <time>2010-01-01T02:27:13Z</time>
      </trkpt>
      <trkpt lat="46.98392" lon="-0.98717">
        <ele>92</ele>
        <time>2010-01-01T02:27:53Z</time>
      </trkpt>
      <trkpt lat="46.98416" lon="-0.98674">
        <ele>89</ele>
        <time>2010-01-01T02:28:08Z</time>
      </trkpt>
      <trkpt lat="46.98419" lon="-0.98634">
        <ele>89</ele>
        <time>2010-01-01T02:28:19Z</time>
      </trkpt>
      <trkpt lat="46.98407" lon="-0.98572">
        <ele>88</ele>
        <time>2010-01-01T02:28:37Z</time>
      </trkpt>
      <trkpt lat="46.98407" lon="-0.98524">
        <ele>87</ele>
        <time>2010-01-01T02:28:50Z</time>
      </trkpt>
      <trkpt lat="46.98409" lon="-0.98491">
        <ele>87</ele>
        <time>2010-01-01T02:28:59Z</time>
      </trkpt>
      <trkpt lat="46.984" lon="-0.98438">
        <ele>88</ele>
        <time>2010-01-01T02:29:14Z</time>
      </trkpt>
      <trkpt lat="46.98381" lon="-0.98389">
        <ele>90</ele>
        <time>2010-01-01T02:29:29Z</time>
      </trkpt>
      <trkpt lat="46.98368" lon="-0.98368">
        <ele>90</ele>
        <time>2010-01-01T02:29:37Z</time>
      </trkpt>
      <trkpt lat="46.98372" lon="-0.98333">
        <ele>89</ele>
        <time>2010-01-01T02:29:47Z</time>
      </trkpt>
      <trkpt lat="46.98378" lon="-0.98318">
        <ele>89</ele>
        <time>2010-01-01T02:29:51Z</time>
      </trkpt>
      <trkpt lat="46.98403" lon="-0.98285">
        <ele>92</ele>
        <time>2010-01-01T02:30:05Z</time>
      </trkpt>
      <trkpt lat="46.98414" lon="-0.98277">
        <ele>93</ele>
        <time>2010-01-01T02:30:10Z</time>
      </trkpt>
      <trkpt lat="46.98476" lon="-0.98263">
        <ele>99</ele>
        <time>2010-01-01T02:30:35Z</time>
      </trkpt>
      <trkpt lat="46.98523" lon="-0.98232">
        <ele>104</ele>
        <time>2010-01-01T02:30:55Z</time>
      </trkpt>
      <trkpt lat="46.98557" lon="-0.98221">
        <ele>107</ele>
        <time>2010-01-01T02:31:09Z</time>
      </trkpt>
      <trkpt lat="46.98628" lon="-0.98185">
        <ele>111</ele>
        <time>2010-01-01T02:31:39Z</time>
      </trkpt>
      <trkpt lat="46.9865" lon="-0.98166">
        <ele>111</ele>
        <time>2010-01-01T02:31:50Z</time>
      </trkpt>
      <trkpt lat="46.9866" lon="-0.98148">
        <ele>111</ele>
        <time>2010-01-01T02:31:56Z</time>
      </trkpt>
      <trkpt lat="46.98717" lon="-0.98145">
        <ele>112</ele>
        <time>2010-01-01T02:32:19Z</time>
      </trkpt>
      <trkpt lat="46.98764" lon="-0.9816">
        <ele>112</ele>
        <time>2010-01-01T02:32:38Z</time>
      </trkpt>
      <trkpt lat="46.98861" lon="-0.9817">
        <ele>106</ele>
        <time>2010-01-01T02:33:17Z</time>
      </trkpt>
      <trkpt lat="46.98992" lon="-0.98119">
        <ele>108</ele>
        <time>2010-01-01T02:34:11Z</time>
      </trkpt>
      <trkpt lat="46.98998" lon="-0.98116">
        <ele>108</ele>
        <time>2010-01-01T02:34:14Z</time>
      </trkpt>
      <trkpt lat="46.98925" lon="-0.97877">
        <ele>112</ele>
        <time>2010-01-01T02:35:25Z</time>
      </trkpt>
      <trkpt lat="46.98917" lon="-0.97816">
        <ele>113</ele>
        <time>2010-01-01T02:35:42Z</time>
      </trkpt>
      <trkpt lat="46.98915" lon="-0.97644">
        <ele>122</ele>
        <time>2010-01-01T02:36:29Z</time>
      </trkpt>
      <trkpt lat="46.98901" lon="-0.97603">
        <ele>126</ele>
        <time>2010-01-01T02:36:42Z</time>
      </trkpt>
      <trkpt lat="46.98891" lon="-0.9759">
        <ele>127</ele>
        <time>2010-01-01T02:36:47Z</time>
      </trkpt>
      <trkpt lat="46.98865" lon="-0.97572">
        <ele>128</ele>
        <time>2010-01-01T02:36:59Z</time>
      </trkpt>
      <trkpt lat="46.98694" lon="-0.97474">
        <ele>135</ele>
        <time>2010-01-01T02:38:12Z</time>
      </trkpt>
      <trkpt lat="46.98668" lon="-0.97453">
        <ele>135</ele>
        <time>2010-01-01T02:38:24Z</time>
      </trkpt>
      <trkpt lat="46.98498" lon="-0.97264">
        <ele>140</ele>
        <time>2010-01-01T02:39:49Z</time>
      </trkpt>
      <trkpt lat="46.98466" lon="-0.97219">
        <ele>139</ele>
        <time>2010-01-01T02:40:07Z</time>
      </trkpt>
      <trkpt lat="46.98416" lon="-0.97134">
        <ele>138</ele>
        <time>2010-01-01T02:40:38Z</time>
      </trkpt>
      <trkpt lat="46.98371" lon="-0.97038">
        <ele>134</ele>
        <time>2010-01-01T02:41:10Z</time>
      </trkpt>
      <trkpt lat="46.98326" lon="-0.96997">
        <ele>133</ele>
        <time>2010-01-01T02:41:31Z</time>
      </trkpt>
      <trkpt lat="46.98239" lon="-0.96902">
        <ele>132</ele>
        <time>2010-01-01T02:42:14Z</time>
      </trkpt>
      <trkpt lat="46.98224" lon="-0.96882">
        <ele>131</ele>
        <time>2010-01-01T02:42:22Z</time>
      </trkpt>
      <trkpt lat="46.98217" lon="-0.96811">
        <ele>131</ele>
        <time>2010-01-01T02:42:42Z</time>
      </trkpt>
      <trkpt lat="46.98203" lon="-0.96574">
        <ele>118</ele>
        <time>2010-01-01T02:43:47Z</time>
      </trkpt>
      <trkpt lat="46.98202" lon="-0.96481">
        <ele>117</ele>
        <time>2010-01-01T02:44:12Z</time>
      </trkpt>
      <trkpt lat="46.98212" lon="-0.96416">
        <ele>116</ele>
        <time>2010-01-01T02:44:31Z</time>
      </trkpt>
      <trkpt lat="46.98242" lon="-0.96334">
        <ele>111</ele>
        <time>2010-01-01T02:44:56Z</time>
      </trkpt>
      <trkpt lat="46.98246" lon="-0.96309">
        <ele>111</ele>
        <time>2010-01-01T02:45:03Z</time>
      </trkpt>
      <trkpt lat="46.97956" lon="-0.96469">
        <ele>126</ele>
        <time>2010-01-01T02:47:07Z</time>
      </trkpt>
      <trkpt lat="46.97919" lon="-0.96488">
        <ele>127</ele>
        <time>2010-01-01T02:47:23Z</time>
      </trkpt>
      <trkpt lat="46.97862" lon="-0.96528">
        <ele>129</ele>
        <time>2010-01-01T02:47:48Z</time>
      </trkpt>
      <trkpt lat="46.97594" lon="-0.96667">
        <ele>129</ele>
        <time>2010-01-01T02:49:42Z</time>
      </trkpt>
      <trkpt lat="46.97581" lon="-0.96677">
        <ele>129</ele>
        <time>2010-01-01T02:49:48Z</time>
      </trkpt>
      <trkpt lat="46.97546" lon="-0.96731">
        <ele>130</ele>
        <time>2010-01-01T02:50:08Z</time>
      </trkpt>
      <trkpt lat="46.97535" lon="-0.96741">
        <ele>130</ele>
        <time>2010-01-01T02:50:13Z</time>
      </trkpt>
      <trkpt lat="46.9753" lon="-0.96756">
        <ele>129</ele>
        <time>2010-01-01T02:50:18Z</time>
      </trkpt>
      <trkpt lat="46.97511" lon="-0.96765">
        <ele>128</ele>
        <time>2010-01-01T02:50:26Z</time>
      </trkpt>
      <trkpt lat="46.97499" lon="-0.96751">
        <ele>128</ele>
        <time>2010-01-01T02:50:32Z</time>
      </trkpt>
      <trkpt lat="46.97496" lon="-0.96734">
        <ele>129</ele>
        <time>2010-01-01T02:50:37Z</time>
      </trkpt>
      <trkpt lat="46.9748" lon="-0.96704">
        <ele>129</ele>
        <time>2010-01-01T02:50:47Z</time>
      </trkpt>
      <trkpt lat="46.97459" lon="-0.96693">
        <ele>129</ele>
        <time>2010-01-01T02:50:56Z</time>
      </trkpt>
      <trkpt lat="46.97369" lon="-0.96664">
        <ele>130</ele>
        <time>2010-01-01T02:51:33Z</time>
      </trkpt>
      <trkpt lat="46.97377" lon="-0.96638">
        <ele>131</ele>
        <time>2010-01-01T02:51:41Z</time>
      </trkpt>
      <trkpt lat="46.97411" lon="-0.96613">
        <ele>131</ele>
        <time>2010-01-01T02:51:56Z</time>
      </trkpt>
      <trkpt lat="46.97418" lon="-0.96594">
        <ele>131</ele>
        <time>2010-01-01T02:52:02Z</time>
      </trkpt>
      <trkpt lat="46.97415" lon="-0.96573">
        <ele>132</ele>
        <time>2010-01-01T02:52:08Z</time>
      </trkpt>
      <trkpt lat="46.97358" lon="-0.96493">
        <ele>131</ele>
        <time>2010-01-01T02:52:39Z</time>
      </trkpt>
      <trkpt lat="46.97335" lon="-0.96451">
        <ele>130</ele>
        <time>2010-01-01T02:52:54Z</time>
      </trkpt>
      <trkpt lat="46.97315" lon="-0.96431">
        <ele>129</ele>
        <time>2010-01-01T02:53:04Z</time>
      </trkpt>
      <trkpt lat="46.97294" lon="-0.96424">
        <ele>129</ele>
        <time>2010-01-01T02:53:12Z</time>
      </trkpt>
      <trkpt lat="46.9725" lon="-0.9642">
        <ele>127</ele>
        <time>2010-01-01T02:53:30Z</time>
      </trkpt>
      <trkpt lat="46.97223" lon="-0.96397">
        <ele>126</ele>
        <time>2010-01-01T02:53:42Z</time>
      </trkpt>
      <trkpt lat="46.97215" lon="-0.96371">
        <ele>124</ele>
        <time>2010-01-01T02:53:50Z</time>
      </trkpt>
      <trkpt lat="46.97215" lon="-0.9626">
        <ele>121</ele>
        <time>2010-01-01T02:54:21Z</time>
      </trkpt>
      <trkpt lat="46.97197" lon="-0.9612">
        <ele>122</ele>
        <time>2010-01-01T02:54:59Z</time>
      </trkpt>
      <trkpt lat="46.97185" lon="-0.96089">
        <ele>124</ele>
        <time>2010-01-01T02:55:09Z</time>
      </trkpt>
      <trkpt lat="46.97166" lon="-0.96069">
        <ele>126</ele>
        <time>2010-01-01T02:55:19Z</time>
      </trkpt>
      <trkpt lat="46.97044" lon="-0.95988">
        <ele>135</ele>
        <time>2010-01-01T02:56:12Z</time>
      </trkpt>
      <trkpt lat="46.96953" lon="-0.95914">
        <ele>138</ele>
        <time>2010-01-01T02:56:54Z</time>
      </trkpt>
      <trkpt lat="46.9691" lon="-0.95886">
        <ele>139</ele>
        <time>2010-01-01T02:57:13Z</time>
      </trkpt>
      <trkpt lat="46.96827" lon="-0.95862">
        <ele>139</ele>
        <time>2010-01-01T02:57:47Z</time>
      </trkpt>
      <trkpt lat="46.96786" lon="-0.95856">
        <ele>138</ele>
        <time>2010-01-01T02:58:03Z</time>
      </trkpt>
      <trkpt lat="46.96735" lon="-0.95829">
        <ele>137</ele>
        <time>2010-01-01T02:58:25Z</time>
      </trkpt>
      <trkpt lat="46.96688" lon="-0.95825">
        <ele>136</ele>
        <time>2010-01-01T02:58:44Z</time>
      </trkpt>
      <trkpt lat="46.96577" lon="-0.95762">
        <ele>136</ele>
        <time>2010-01-01T02:59:31Z</time>
      </trkpt>
      <trkpt lat="46.96461" lon="-0.9568">
        <ele>138</ele>
        <time>2010-01-01T03:00:23Z</time>
      </trkpt>
      <trkpt lat="46.96377" lon="-0.95645">
        <ele>140</ele>
        <time>2010-01-01T03:00:58Z</time>
      </trkpt>
      <trkpt lat="46.96361" lon="-0.95623">
        <ele>140</ele>
        <time>2010-01-01T03:01:07Z</time>
      </trkpt>
      <trkpt lat="46.96347" lon="-0.95579">
        <ele>137</ele>
        <time>2010-01-01T03:01:20Z</time>
      </trkpt>
      <trkpt lat="46.9636" lon="-0.95548">
        <ele>136</ele>
        <time>2010-01-01T03:01:30Z</time>
      </trkpt>
      <trkpt lat="46.96375" lon="-0.95496">
        <ele>134</ele>
        <time>2010-01-01T03:01:45Z</time>
      </trkpt>
      <trkpt lat="46.96377" lon="-0.95461">
        <ele>132</ele>
        <time>2010-01-01T03:01:55Z</time>
      </trkpt>
      <trkpt lat="46.96341" lon="-0.95292">
        <ele>126</ele>
        <time>2010-01-01T03:02:43Z</time>
      </trkpt>
      <trkpt lat="46.96316" lon="-0.95189">
        <ele>125</ele>
        <time>2010-01-01T03:03:13Z</time>
      </trkpt>
      <trkpt lat="46.96298" lon="-0.95144">
        <ele>125</ele>
        <time>2010-01-01T03:03:27Z</time>
      </trkpt>
      <trkpt lat="46.96174" lon="-0.94975">
        <ele>129</ele>
        <time>2010-01-01T03:04:35Z</time>
      </trkpt>
      <trkpt lat="46.96156" lon="-0.94927">
        <ele>130</ele>
        <time>2010-01-01T03:04:50Z</time>
      </trkpt>
      <trkpt lat="46.96082" lon="-0.94454">
        <ele>145</ele>
        <time>2010-01-01T03:07:03Z</time>
      </trkpt>
      <trkpt lat="46.96072" lon="-0.94359">
        <ele>145</ele>
        <time>2010-01-01T03:07:29Z</time>
      </trkpt>
      <trkpt lat="46.96065" lon="-0.94196">
        <ele>141</ele>
        <time>2010-01-01T03:08:13Z</time>
      </trkpt>
      <trkpt lat="46.96052" lon="-0.94081">
        <ele>140</ele>
        <time>2010-01-01T03:08:45Z</time>
      </trkpt>
      <trkpt lat="46.95952" lon="-0.94198">
        <ele>147</ele>
        <time>2010-01-01T03:09:37Z</time>
      </trkpt>
      <trkpt lat="46.95928" lon="-0.94218">
        <ele>148</ele>
        <time>2010-01-01T03:09:48Z</time>
      </trkpt>
      <trkpt lat="46.95857" lon="-0.94261">
        <ele>148</ele>
        <time>2010-01-01T03:10:18Z</time>
      </trkpt>
      <trkpt lat="46.9584" lon="-0.94279">
        <ele>148</ele>
        <time>2010-01-01T03:10:27Z</time>
      </trkpt>
      <trkpt lat="46.95832" lon="-0.94295">
        <ele>147</ele>
        <time>2010-01-01T03:10:32Z</time>
      </trkpt>
      <trkpt lat="46.95822" lon="-0.94358">
        <ele>147</ele>
        <time>2010-01-01T03:10:50Z</time>
      </trkpt>
      <trkpt lat="46.95786" lon="-0.94455">
        <ele>145</ele>
        <time>2010-01-01T03:11:20Z</time>
      </trkpt>
      <trkpt lat="46.95736" lon="-0.9456">
        <ele>144</ele>
        <time>2010-01-01T03:11:55Z</time>
      </trkpt>
      <trkpt lat="46.95703" lon="-0.94607">
        <ele>143</ele>
        <time>2010-01-01T03:12:13Z</time>
      </trkpt>
      <trkpt lat="46.95617" lon="-0.94717">
        <ele>147</ele>
        <time>2010-01-01T03:12:59Z</time>
      </trkpt>
      <trkpt lat="46.95581" lon="-0.94743">
        <ele>150</ele>
        <time>2010-01-01T03:13:15Z</time>
      </trkpt>
      <trkpt lat="46.9553" lon="-0.9477">
        <ele>154</ele>
        <time>2010-01-01T03:13:37Z</time>
      </trkpt>
      <trkpt lat="46.9551" lon="-0.94788">
        <ele>155</ele>
        <time>2010-01-01T03:13:46Z</time>
      </trkpt>
      <trkpt lat="46.95499" lon="-0.94824">
        <ele>155</ele>
        <time>2010-01-01T03:13:57Z</time>
      </trkpt>
      <trkpt lat="46.95483" lon="-0.94941">
        <ele>156</ele>
        <time>2010-01-01T03:14:30Z</time>
      </trkpt>
      <trkpt lat="46.95476" lon="-0.94968">
        <ele>156</ele>
        <time>2010-01-01T03:14:38Z</time>
      </trkpt>
      <trkpt lat="46.95466" lon="-0.94984">
        <ele>157</ele>
        <time>2010-01-01T03:14:43Z</time>
      </trkpt>
      <trkpt lat="46.95405" lon="-0.95047">
        <ele>159</ele>
        <time>2010-01-01T03:15:13Z</time>
      </trkpt>
      <trkpt lat="46.95397" lon="-0.95071">
        <ele>160</ele>
        <time>2010-01-01T03:15:21Z</time>
      </trkpt>
      <trkpt lat="46.95398" lon="-0.95112">
        <ele>161</ele>
        <time>2010-01-01T03:15:32Z</time>
      </trkpt>
      <trkpt lat="46.95391" lon="-0.95129">
        <ele>161</ele>
        <time>2010-01-01T03:15:37Z</time>
      </trkpt>
      <trkpt lat="46.95377" lon="-0.95133">
        <ele>161</ele>
        <time>2010-01-01T03:15:43Z</time>
      </trkpt>
      <trkpt lat="46.95331" lon="-0.95127">
        <ele>162</ele>
        <time>2010-01-01T03:16:01Z</time>
      </trkpt>
      <trkpt lat="46.95261" lon="-0.95128">
        <ele>164</ele>
        <time>2010-01-01T03:16:30Z</time>
      </trkpt>
      <trkpt lat="46.95215" lon="-0.95135">
        <ele>165</ele>
        <time>2010-01-01T03:16:48Z</time>
      </trkpt>
      <trkpt lat="46.95218" lon="-0.95175">
        <ele>166</ele>
        <time>2010-01-01T03:16:59Z</time>
      </trkpt>
      <trkpt lat="46.95216" lon="-0.95202">
        <ele>167</ele>
        <time>2010-01-01T03:17:06Z</time>
      </trkpt>
      <trkpt lat="46.95208" lon="-0.95226">
        <ele>167</ele>
        <time>2010-01-01T03:17:14Z</time>
      </trkpt>
      <trkpt lat="46.9519" lon="-0.9526">
        <ele>167</ele>
        <time>2010-01-01T03:17:25Z</time>
      </trkpt>
      <trkpt lat="46.95116" lon="-0.95353">
        <ele>165</ele>
        <time>2010-01-01T03:18:05Z</time>
      </trkpt>
      <trkpt lat="46.95052" lon="-0.95442">
        <ele>171</ele>
        <time>2010-01-01T03:18:40Z</time>
      </trkpt>
      <trkpt lat="46.94971" lon="-0.95541">
        <ele>169</ele>
        <time>2010-01-01T03:19:22Z</time>
      </trkpt>
      <trkpt lat="46.94944" lon="-0.95585">
        <ele>168</ele>
        <time>2010-01-01T03:19:38Z</time>
      </trkpt>
      <trkpt lat="46.94934" lon="-0.9563">
        <ele>168</ele>
        <time>2010-01-01T03:19:51Z</time>
      </trkpt>
      <trkpt lat="46.94918" lon="-0.95771">
        <ele>167</ele>
        <time>2010-01-01T03:20:30Z</time>
      </trkpt>
      <trkpt lat="46.94906" lon="-0.95821">
        <ele>169</ele>
        <time>2010-01-01T03:20:45Z</time>
      </trkpt>
      <trkpt lat="46.94889" lon="-0.95858">
        <ele>169</ele>
        <time>2010-01-01T03:20:57Z</time>
      </trkpt>
      <trkpt lat="46.94835" lon="-0.95937">
        <ele>170</ele>
        <time>2010-01-01T03:21:27Z</time>
      </trkpt>
      <trkpt lat="46.94717" lon="-0.95825">
        <ele>176</ele>
        <time>2010-01-01T03:22:24Z</time>
      </trkpt>
      <trkpt lat="46.94581" lon="-0.95662">
        <ele>174</ele>
        <time>2010-01-01T03:23:34Z</time>
      </trkpt>
      <trkpt lat="46.94522" lon="-0.95581">
        <ele>173</ele>
        <time>2010-01-01T03:24:06Z</time>
      </trkpt>
      <trkpt lat="46.94416" lon="-0.95401">
        <ele>178</ele>
        <time>2010-01-01T03:25:11Z</time>
      </trkpt>
      <trkpt lat="46.94401" lon="-0.95353">
        <ele>180</ele>
        <time>2010-01-01T03:25:26Z</time>
      </trkpt>
      <trkpt lat="46.94395" lon="-0.9528">
        <ele>182</ele>
        <time>2010-01-01T03:25:46Z</time>
      </trkpt>
      <trkpt lat="46.94389" lon="-0.95115">
        <ele>182</ele>
        <time>2010-01-01T03:26:31Z</time>
      </trkpt>
      <trkpt lat="46.9439" lon="-0.95035">
        <ele>184</ele>
        <time>2010-01-01T03:26:53Z</time>
      </trkpt>
      <trkpt lat="46.94396" lon="-0.94944">
        <ele>184</ele>
        <time>2010-01-01T03:27:18Z</time>
      </trkpt>
      <trkpt lat="46.94393" lon="-0.94892">
        <ele>184</ele>
        <time>2010-01-01T03:27:32Z</time>
      </trkpt>
      <trkpt lat="46.94381" lon="-0.94843">
        <ele>184</ele>
        <time>2010-01-01T03:27:46Z</time>
      </trkpt>
      <trkpt lat="46.94344" lon="-0.94751">
        <ele>182</ele>
        <time>2010-01-01T03:28:16Z</time>
      </trkpt>
      <trkpt lat="46.94326" lon="-0.94721">
        <ele>181</ele>
        <time>2010-01-01T03:28:27Z</time>
      </trkpt>
      <trkpt lat="46.94311" lon="-0.94707">
        <ele>180</ele>
        <time>2010-01-01T03:28:34Z</time>
      </trkpt>
      <trkpt lat="46.94218" lon="-0.94645">
        <ele>177</ele>
        <time>2010-01-01T03:29:15Z</time>
      </trkpt>
      <trkpt lat="46.94166" lon="-0.94594">
        <ele>177</ele>
        <time>2010-01-01T03:29:40Z</time>
      </trkpt>
      <trkpt lat="46.93933" lon="-0.9429">
        <ele>165</ele>
        <time>2010-01-01T03:31:45Z</time>
      </trkpt>
      <trkpt lat="46.93907" lon="-0.94246">
        <ele>162</ele>
        <time>2010-01-01T03:32:00Z</time>
      </trkpt>
      <trkpt lat="46.93878" lon="-0.94183">
        <ele>160</ele>
        <time>2010-01-01T03:32:21Z</time>
      </trkpt>
      <trkpt lat="46.93852" lon="-0.94085">
        <ele>157</ele>
        <time>2010-01-01T03:32:50Z</time>
      </trkpt>
      <trkpt lat="46.93848" lon="-0.9402">
        <ele>155</ele>
        <time>2010-01-01T03:33:08Z</time>
      </trkpt>
      <trkpt lat="46.93855" lon="-0.93961">
        <ele>156</ele>
        <time>2010-01-01T03:33:24Z</time>
      </trkpt>
      <trkpt lat="46.93881" lon="-0.9383">
        <ele>160</ele>
        <time>2010-01-01T03:34:01Z</time>
      </trkpt>
      <trkpt lat="46.9391" lon="-0.93743">
        <ele>163</ele>
        <time>2010-01-01T03:34:28Z</time>
      </trkpt>
      <trkpt lat="46.93913" lon="-0.93683">
        <ele>165</ele>
        <time>2010-01-01T03:34:44Z</time>
      </trkpt>
      <trkpt lat="46.93903" lon="-0.93553">
        <ele>174</ele>
        <time>2010-01-01T03:35:20Z</time>
      </trkpt>
      <trkpt lat="46.93897" lon="-0.9353">
        <ele>175</ele>
        <time>2010-01-01T03:35:27Z</time>
      </trkpt>
      <trkpt lat="46.93875" lon="-0.93478">
        <ele>177</ele>
        <time>2010-01-01T03:35:44Z</time>
      </trkpt>
      <trkpt lat="46.93806" lon="-0.93351">
        <ele>183</ele>
        <time>2010-01-01T03:36:28Z</time>
      </trkpt>
      <trkpt lat="46.93778" lon="-0.93275">
        <ele>183</ele>
        <time>2010-01-01T03:36:51Z</time>
      </trkpt>
      <trkpt lat="46.93755" lon="-0.93233">
        <ele>183</ele>
        <time>2010-01-01T03:37:06Z</time>
      </trkpt>
      <trkpt lat="46.93718" lon="-0.93207">
        <ele>181</ele>
        <time>2010-01-01T03:37:23Z</time>
      </trkpt>
      <trkpt lat="46.93674" lon="-0.93193">
        <ele>180</ele>
        <time>2010-01-01T03:37:41Z</time>
      </trkpt>
      <trkpt lat="46.93643" lon="-0.93157">
        <ele>181</ele>
        <time>2010-01-01T03:37:56Z</time>
      </trkpt>
      <trkpt lat="46.93623" lon="-0.93113">
        <ele>179</ele>
        <time>2010-01-01T03:38:11Z</time>
      </trkpt>
      <trkpt lat="46.93568" lon="-0.92938">
        <ele>176</ele>
        <time>2010-01-01T03:39:04Z</time>
      </trkpt>
      <trkpt lat="46.93552" lon="-0.92897">
        <ele>177</ele>
        <time>2010-01-01T03:39:16Z</time>
      </trkpt>
      <trkpt lat="46.93485" lon="-0.92772">
        <ele>173</ele>
        <time>2010-01-01T03:40:00Z</time>
      </trkpt>
      <trkpt lat="46.93245" lon="-0.92298">
        <ele>178</ele>
        <time>2010-01-01T03:42:41Z</time>
      </trkpt>
      <trkpt lat="46.93217" lon="-0.92232">
        <ele>174</ele>
        <time>2010-01-01T03:43:02Z</time>
      </trkpt>
      <trkpt lat="46.93207" lon="-0.9219">
        <ele>172</ele>
        <time>2010-01-01T03:43:15Z</time>
      </trkpt>
      <trkpt lat="46.93205" lon="-0.92162">
        <ele>172</ele>
        <time>2010-01-01T03:43:22Z</time>
      </trkpt>
      <trkpt lat="46.93208" lon="-0.92078">
        <ele>176</ele>
        <time>2010-01-01T03:43:45Z</time>
      </trkpt>
      <trkpt lat="46.93199" lon="-0.92032">
        <ele>179</ele>
        <time>2010-01-01T03:43:58Z</time>
      </trkpt>
      <trkpt lat="46.9313" lon="-0.91861">
        <ele>186</ele>
        <time>2010-01-01T03:44:53Z</time>
      </trkpt>
      <trkpt lat="46.93085" lon="-0.91763">
        <ele>187</ele>
        <time>2010-01-01T03:45:25Z</time>
      </trkpt>
      <trkpt lat="46.93051" lon="-0.91707">
        <ele>186</ele>
        <time>2010-01-01T03:45:45Z</time>
      </trkpt>
      <trkpt lat="46.92919" lon="-0.91564">
        <ele>189</ele>
        <time>2010-01-01T03:46:51Z</time>
      </trkpt>
      <trkpt lat="46.92867" lon="-0.91462">
        <ele>193</ele>
        <time>2010-01-01T03:47:26Z</time>
      </trkpt>
      <trkpt lat="46.92824" lon="-0.91399">
        <ele>196</ele>
        <time>2010-01-01T03:47:50Z</time>
      </trkpt>
      <trkpt lat="46.92786" lon="-0.91297">
        <ele>196</ele>
        <time>2010-01-01T03:48:22Z</time>
      </trkpt>
      <trkpt lat="46.92689" lon="-0.91168">
        <ele>198</ele>
        <time>2010-01-01T03:49:15Z</time>
      </trkpt>
      <trkpt lat="46.92681" lon="-0.91151">
        <ele>198</ele>
        <time>2010-01-01T03:49:20Z</time>
      </trkpt>
      <trkpt lat="46.92678" lon="-0.91132">
        <ele>198</ele>
        <time>2010-01-01T03:49:26Z</time>
      </trkpt>
      <trkpt lat="46.92612" lon="-0.91148">
        <ele>197</ele>
        <time>2010-01-01T03:49:52Z</time>
      </trkpt>
      <trkpt lat="46.92551" lon="-0.91166">
        <ele>194</ele>
        <time>2010-01-01T03:50:17Z</time>
      </trkpt>
      <trkpt lat="46.92503" lon="-0.9119">
        <ele>194</ele>
        <time>2010-01-01T03:50:38Z</time>
      </trkpt>
      <trkpt lat="46.92465" lon="-0.91218">
        <ele>194</ele>
        <time>2010-01-01T03:50:55Z</time>
      </trkpt>
      <trkpt lat="46.924" lon="-0.91302">
        <ele>194</ele>
        <time>2010-01-01T03:51:29Z</time>
      </trkpt>
      <trkpt lat="46.92351" lon="-0.91384">
        <ele>194</ele>
        <time>2010-01-01T03:51:59Z</time>
      </trkpt>
      <trkpt lat="46.9232" lon="-0.91428">
        <ele>192</ele>
        <time>2010-01-01T03:52:16Z</time>
      </trkpt>
      <trkpt lat="46.9221" lon="-0.91535">
        <ele>190</ele>
        <time>2010-01-01T03:53:09Z</time>
      </trkpt>
      <trkpt lat="46.92118" lon="-0.91606">
        <ele>193</ele>
        <time>2010-01-01T03:53:51Z</time>
      </trkpt>
      <trkpt lat="46.9202" lon="-0.9171">
        <ele>196</ele>
        <time>2010-01-01T03:54:39Z</time>
      </trkpt>
      <trkpt lat="46.91992" lon="-0.91753">
        <ele>197</ele>
        <time>2010-01-01T03:54:56Z</time>
      </trkpt>
      <trkpt lat="46.91965" lon="-0.91828">
        <ele>196</ele>
        <time>2010-01-01T03:55:19Z</time>
      </trkpt>
      <trkpt lat="46.91939" lon="-0.92028">
        <ele>197</ele>
        <time>2010-01-01T03:56:14Z</time>
      </trkpt>
      <trkpt lat="46.91909" lon="-0.9212">
        <ele>196</ele>
        <time>2010-01-01T03:56:42Z</time>
      </trkpt>
      <trkpt lat="46.91887" lon="-0.92165">
        <ele>197</ele>
        <time>2010-01-01T03:56:57Z</time>
      </trkpt>
      <trkpt lat="46.91791" lon="-0.92287">
        <ele>198</ele>
        <time>2010-01-01T03:57:48Z</time>
      </trkpt>
      <trkpt lat="46.91749" lon="-0.92354">
        <ele>197</ele>
        <time>2010-01-01T03:58:13Z</time>
      </trkpt>
      <trkpt lat="46.91717" lon="-0.92429">
        <ele>200</ele>
        <time>2010-01-01T03:58:37Z</time>
      </trkpt>
      <trkpt lat="46.91707" lon="-0.92476">
        <ele>201</ele>
        <time>2010-01-01T03:58:51Z</time>
      </trkpt>
      <trkpt lat="46.91703" lon="-0.92517">
        <ele>201</ele>
        <time>2010-01-01T03:59:02Z</time>
      </trkpt>
      <trkpt lat="46.91703" lon="-0.9273">
        <ele>204</ele>
        <time>2010-01-01T04:00:00Z</time>
      </trkpt>
      <trkpt lat="46.91695" lon="-0.9277">
        <ele>205</ele>
        <time>2010-01-01T04:00:12Z</time>
      </trkpt>
      <trkpt lat="46.91675" lon="-0.92821">
        <ele>206</ele>
        <time>2010-01-01T04:00:28Z</time>
      </trkpt>
      <trkpt lat="46.91658" lon="-0.92849">
        <ele>207</ele>
        <time>2010-01-01T04:00:38Z</time>
      </trkpt>
      <trkpt lat="46.91631" lon="-0.9288">
        <ele>210</ele>
        <time>2010-01-01T04:00:52Z</time>
      </trkpt>
      <trkpt lat="46.91482" lon="-0.93005">
        <ele>211</ele>
        <time>2010-01-01T04:02:01Z</time>
      </trkpt>
      <trkpt lat="46.9144" lon="-0.93039">
        <ele>210</ele>
        <time>2010-01-01T04:02:20Z</time>
      </trkpt>
      <trkpt lat="46.91395" lon="-0.93058">
        <ele>211</ele>
        <time>2010-01-01T04:02:38Z</time>
      </trkpt>
      <trkpt lat="46.91347" lon="-0.93052">
        <ele>213</ele>
        <time>2010-01-01T04:02:58Z</time>
      </trkpt>
      <trkpt lat="46.9129" lon="-0.93025">
        <ele>215</ele>
        <time>2010-01-01T04:03:22Z</time>
      </trkpt>
      <trkpt lat="46.91262" lon="-0.92997">
        <ele>216</ele>
        <time>2010-01-01T04:03:35Z</time>
      </trkpt>
      <trkpt lat="46.91191" lon="-0.92865">
        <ele>218</ele>
        <time>2010-01-01T04:04:21Z</time>
      </trkpt>
      <trkpt lat="46.91135" lon="-0.92795">
        <ele>215</ele>
        <time>2010-01-01T04:04:51Z</time>
      </trkpt>
      <trkpt lat="46.91089" lon="-0.92729">
        <ele>214</ele>
        <time>2010-01-01T04:05:17Z</time>
      </trkpt>
      <trkpt lat="46.91073" lon="-0.92711">
        <ele>213</ele>
        <time>2010-01-01T04:05:25Z</time>
      </trkpt>
      <trkpt lat="46.91044" lon="-0.92689">
        <ele>212</ele>
        <time>2010-01-01T04:05:38Z</time>
      </trkpt>
      <trkpt lat="46.91019" lon="-0.92681">
        <ele>211</ele>
        <time>2010-01-01T04:05:48Z</time>
      </trkpt>
      <trkpt lat="46.90984" lon="-0.92679">
        <ele>210</ele>
        <time>2010-01-01T04:06:02Z</time>
      </trkpt>
      <trkpt lat="46.90856" lon="-0.92711">
        <ele>211</ele>
        <time>2010-01-01T04:06:54Z</time>
      </trkpt>
      <trkpt lat="46.90778" lon="-0.9272">
        <ele>212</ele>
        <time>2010-01-01T04:07:25Z</time>
      </trkpt>
      <trkpt lat="46.90747" lon="-0.92737">
        <ele>210</ele>
        <time>2010-01-01T04:07:38Z</time>
      </trkpt>
      <trkpt lat="46.90717" lon="-0.92776">
        <ele>210</ele>
        <time>2010-01-01T04:07:55Z</time>
      </trkpt>
      <trkpt lat="46.90649" lon="-0.92899">
        <ele>216</ele>
        <time>2010-01-01T04:08:38Z</time>
      </trkpt>
      <trkpt lat="46.90629" lon="-0.92916">
        <ele>220</ele>
        <time>2010-01-01T04:08:47Z</time>
      </trkpt>
      <trkpt lat="46.90591" lon="-0.9293">
        <ele>221</ele>
        <time>2010-01-01T04:09:03Z</time>
      </trkpt>
      <trkpt lat="46.90565" lon="-0.92955">
        <ele>223</ele>
        <time>2010-01-01T04:09:15Z</time>
      </trkpt>
      <trkpt lat="46.90516" lon="-0.93082">
        <ele>231</ele>
        <time>2010-01-01T04:09:55Z</time>
      </trkpt>
      <trkpt lat="46.90502" lon="-0.93106">
        <ele>233</ele>
        <time>2010-01-01T04:10:04Z</time>
      </trkpt>
      <trkpt lat="46.90485" lon="-0.93119">
        <ele>234</ele>
        <time>2010-01-01T04:10:11Z</time>
      </trkpt>
      <trkpt lat="46.90405" lon="-0.9315">
        <ele>238</ele>
        <time>2010-01-01T04:10:45Z</time>
      </trkpt>
      <trkpt lat="46.90334" lon="-0.9317">
        <ele>238</ele>
        <time>2010-01-01T04:11:13Z</time>
      </trkpt>
      <trkpt lat="46.90261" lon="-0.93164">
        <ele>237</ele>
        <time>2010-01-01T04:11:43Z</time>
      </trkpt>
      <trkpt lat="46.90158" lon="-0.93141">
        <ele>233</ele>
        <time>2010-01-01T04:12:24Z</time>
      </trkpt>
      <trkpt lat="46.90121" lon="-0.93134">
        <ele>233</ele>
        <time>2010-01-01T04:12:39Z</time>
      </trkpt>
      <trkpt lat="46.90094" lon="-0.93122">
        <ele>234</ele>
        <time>2010-01-01T04:12:51Z</time>
      </trkpt>
      <trkpt lat="46.90023" lon="-0.93076">
        <ele>232</ele>
        <time>2010-01-01T04:13:22Z</time>
      </trkpt>
      <trkpt lat="46.9001" lon="-0.93071">
        <ele>232</ele>
        <time>2010-01-01T04:13:27Z</time>
      </trkpt>
      <trkpt lat="46.89985" lon="-0.93071">
        <ele>232</ele>
        <time>2010-01-01T04:13:37Z</time>
      </trkpt>
      <trkpt lat="46.89971" lon="-0.93077">
        <ele>231</ele>
        <time>2010-01-01T04:13:43Z</time>
      </trkpt>
      <trkpt lat="46.89954" lon="-0.93056">
        <ele>230</ele>
        <time>2010-01-01T04:13:52Z</time>
      </trkpt>
      <trkpt lat="46.89887" lon="-0.93045">
        <ele>230</ele>
        <time>2010-01-01T04:14:19Z</time>
      </trkpt>
      <trkpt lat="46.8985" lon="-0.92886">
        <ele>223</ele>
        <time>2010-01-01T04:15:05Z</time>
      </trkpt>
      <trkpt lat="46.89734" lon="-0.92697">
        <ele>214</ele>
        <time>2010-01-01T04:16:14Z</time>
      </trkpt>
      <trkpt lat="46.89514" lon="-0.92605">
        <ele>213</ele>
        <time>2010-01-01T04:17:46Z</time>
      </trkpt>
      <trkpt lat="46.89314" lon="-0.92444">
        <ele>212</ele>
        <time>2010-01-01T04:19:18Z</time>
      </trkpt>
      <trkpt lat="46.89179" lon="-0.92249">
        <ele>216</ele>
        <time>2010-01-01T04:20:33Z</time>
      </trkpt>
      <trkpt lat="46.89067" lon="-0.92079">
        <ele>220</ele>
        <time>2010-01-01T04:21:38Z</time>
      </trkpt>
      <trkpt lat="46.89013" lon="-0.91893">
        <ele>222</ele>
        <time>2010-01-01T04:22:33Z</time>
      </trkpt>
      <trkpt lat="46.88896" lon="-0.91629">
        <ele>221</ele>
        <time>2010-01-01T04:23:59Z</time>
      </trkpt>
      <trkpt lat="46.88809" lon="-0.91547">
        <ele>223</ele>
        <time>2010-01-01T04:24:41Z</time>
      </trkpt>
      <trkpt lat="46.88695" lon="-0.9141">
        <ele>221</ele>
        <time>2010-01-01T04:25:40Z</time>
      </trkpt>
      <trkpt lat="46.88579" lon="-0.91242">
        <ele>204</ele>
        <time>2010-01-01T04:26:45Z</time>
      </trkpt>
      <trkpt lat="46.88473" lon="-0.91144">
        <ele>201</ele>
        <time>2010-01-01T04:27:35Z</time>
      </trkpt>
      <trkpt lat="46.88418" lon="-0.91099">
        <ele>206</ele>
        <time>2010-01-01T04:28:01Z</time>
      </trkpt>
      <trkpt lat="46.88349" lon="-0.91051">
        <ele>206</ele>
        <time>2010-01-01T04:28:31Z</time>
      </trkpt>
      <trkpt lat="46.88281" lon="-0.91165">
        <ele>209</ele>
        <time>2010-01-01T04:29:12Z</time>
      </trkpt>
      <trkpt lat="46.88173" lon="-0.91311">
        <ele>206</ele>
        <time>2010-01-01T04:30:11Z</time>
      </trkpt>
      <trkpt lat="46.88054" lon="-0.91489">
        <ele>207</ele>
        <time>2010-01-01T04:31:19Z</time>
      </trkpt>
      <trkpt lat="46.87954" lon="-0.9171">
        <ele>203</ele>
        <time>2010-01-01T04:32:32Z</time>
      </trkpt>
      <trkpt lat="46.87872" lon="-0.91933">
        <ele>198</ele>
        <time>2010-01-01T04:33:41Z</time>
      </trkpt>
      <trkpt lat="46.87799" lon="-0.92154">
        <ele>196</ele>
        <time>2010-01-01T04:34:48Z</time>
      </trkpt>
      <trkpt lat="46.87766" lon="-0.9235">
        <ele>196</ele>
        <time>2010-01-01T04:35:43Z</time>
      </trkpt>
      <trkpt lat="46.87703" lon="-0.92495">
        <ele>191</ele>
        <time>2010-01-01T04:36:31Z</time>
      </trkpt>
      <trkpt lat="46.8764" lon="-0.92637">
        <ele>190</ele>
        <time>2010-01-01T04:37:17Z</time>
      </trkpt>
      <trkpt lat="46.8763" lon="-0.92727">
        <ele>192</ele>
        <time>2010-01-01T04:37:42Z</time>
      </trkpt>
      <trkpt lat="46.87617" lon="-0.92815">
        <ele>190</ele>
        <time>2010-01-01T04:38:07Z</time>
      </trkpt>
      <trkpt lat="46.8759" lon="-0.92955">
        <ele>180</ele>
        <time>2010-01-01T04:38:46Z</time>
      </trkpt>
      <trkpt lat="46.87564" lon="-0.93073">
        <ele>174</ele>
        <time>2010-01-01T04:39:20Z</time>
      </trkpt>
      <trkpt lat="46.8755" lon="-0.93115">
        <ele>171</ele>
        <time>2010-01-01T04:39:33Z</time>
      </trkpt>
      <trkpt lat="46.87531" lon="-0.93153">
        <ele>167</ele>
        <time>2010-01-01T04:39:46Z</time>
      </trkpt>
      <trkpt lat="46.87476" lon="-0.93235">
        <ele>164</ele>
        <time>2010-01-01T04:40:17Z</time>
      </trkpt>
      <trkpt lat="46.87456" lon="-0.93289">
        <ele>163</ele>
        <time>2010-01-01T04:40:34Z</time>
      </trkpt>
      <trkpt lat="46.87447" lon="-0.93356">
        <ele>160</ele>
        <time>2010-01-01T04:40:53Z</time>
      </trkpt>
      <trkpt lat="46.87432" lon="-0.93655">
        <ele>152</ele>
        <time>2010-01-01T04:42:15Z</time>
      </trkpt>
      <trkpt lat="46.87425" lon="-0.93725">
        <ele>152</ele>
        <time>2010-01-01T04:42:34Z</time>
      </trkpt>
      <trkpt lat="46.87364" lon="-0.94042">
        <ele>143</ele>
        <time>2010-01-01T04:44:04Z</time>
      </trkpt>
      <trkpt lat="46.87209" lon="-0.94832">
        <ele>131</ele>
        <time>2010-01-01T04:47:49Z</time>
      </trkpt>
      <trkpt lat="46.87196" lon="-0.94934">
        <ele>134</ele>
        <time>2010-01-01T04:48:18Z</time>
      </trkpt>
      <trkpt lat="46.872" lon="-0.95048">
        <ele>140</ele>
        <time>2010-01-01T04:48:49Z</time>
      </trkpt>
      <trkpt lat="46.87211" lon="-0.95116">
        <ele>144</ele>
        <time>2010-01-01T04:49:08Z</time>
      </trkpt>
      <trkpt lat="46.87229" lon="-0.95181">
        <ele>146</ele>
        <time>2010-01-01T04:49:27Z</time>
      </trkpt>
      <trkpt lat="46.8729" lon="-0.9535">
        <ele>151</ele>
        <time>2010-01-01T04:50:20Z</time>
      </trkpt>
      <trkpt lat="46.87308" lon="-0.95436">
        <ele>154</ele>
        <time>2010-01-01T04:50:44Z</time>
      </trkpt>
      <trkpt lat="46.87313" lon="-0.9551">
        <ele>153</ele>
        <time>2010-01-01T04:51:04Z</time>
      </trkpt>
      <trkpt lat="46.87312" lon="-0.95548">
        <ele>152</ele>
        <time>2010-01-01T04:51:15Z</time>
      </trkpt>
      <trkpt lat="46.87282" lon="-0.95903">
        <ele>150</ele>
        <time>2010-01-01T04:52:53Z</time>
      </trkpt>
      <trkpt lat="46.87271" lon="-0.95973">
        <ele>149</ele>
        <time>2010-01-01T04:53:12Z</time>
      </trkpt>
      <trkpt lat="46.87253" lon="-0.96041">
        <ele>149</ele>
        <time>2010-01-01T04:53:32Z</time>
      </trkpt>
      <trkpt lat="46.87062" lon="-0.96525">
        <ele>143</ele>
        <time>2010-01-01T04:56:05Z</time>
      </trkpt>
      <trkpt lat="46.87033" lon="-0.96625">
        <ele>143</ele>
        <time>2010-01-01T04:56:35Z</time>
      </trkpt>
      <trkpt lat="46.87018" lon="-0.96701">
        <ele>144</ele>
        <time>2010-01-01T04:56:57Z</time>
      </trkpt>
      <trkpt lat="46.87011" lon="-0.96738">
        <ele>144</ele>
        <time>2010-01-01T04:57:07Z</time>
      </trkpt>
      <trkpt lat="46.87005" lon="-0.96772">
        <ele>144</ele>
        <time>2010-01-01T04:57:17Z</time>
      </trkpt>
      <trkpt lat="46.86996" lon="-0.96918">
        <ele>145</ele>
        <time>2010-01-01T04:57:57Z</time>
      </trkpt>
      <trkpt lat="46.86986" lon="-0.97077">
        <ele>144</ele>
        <time>2010-01-01T04:58:41Z</time>
      </trkpt>
      <trkpt lat="46.86989" lon="-0.97328">
        <ele>142</ele>
        <time>2010-01-01T04:59:49Z</time>
      </trkpt>
      <trkpt lat="46.86986" lon="-0.97364">
        <ele>141</ele>
        <time>2010-01-01T04:59:59Z</time>
      </trkpt>
      <trkpt lat="46.86954" lon="-0.97351">
        <ele>142</ele>
        <time>2010-01-01T05:00:13Z</time>
      </trkpt>
      <trkpt lat="46.86927" lon="-0.97347">
        <ele>143</ele>
        <time>2010-01-01T05:00:23Z</time>
      </trkpt>
      <trkpt lat="46.86864" lon="-0.97315">
        <ele>144</ele>
        <time>2010-01-01T05:00:50Z</time>
      </trkpt>
      <trkpt lat="46.86759" lon="-0.97308">
        <ele>151</ele>
        <time>2010-01-01T05:01:32Z</time>
      </trkpt>
      <trkpt lat="46.86665" lon="-0.973">
        <ele>150</ele>
        <time>2010-01-01T05:02:10Z</time>
      </trkpt>
      <trkpt lat="46.86543" lon="-0.97281">
        <ele>148</ele>
        <time>2010-01-01T05:02:59Z</time>
      </trkpt>
      <trkpt lat="46.86417" lon="-0.97205">
        <ele>143</ele>
        <time>2010-01-01T05:03:54Z</time>
      </trkpt>
      <trkpt lat="46.86314" lon="-0.97186">
        <ele>139</ele>
        <time>2010-01-01T05:04:35Z</time>
      </trkpt>
      <trkpt lat="46.86249" lon="-0.97177">
        <ele>137</ele>
        <time>2010-01-01T05:05:01Z</time>
      </trkpt>
      <trkpt lat="46.86121" lon="-0.97331">
        <ele>133</ele>
        <time>2010-01-01T05:06:08Z</time>
      </trkpt>
      <trkpt lat="46.86026" lon="-0.97428">
        <ele>134</ele>
        <time>2010-01-01T05:06:54Z</time>
      </trkpt>
      <trkpt lat="46.85955" lon="-0.9751">
        <ele>132</ele>
        <time>2010-01-01T05:07:30Z</time>
      </trkpt>
      <trkpt lat="46.85781" lon="-0.97662">
        <ele>127</ele>
        <time>2010-01-01T05:08:51Z</time>
      </trkpt>
      <trkpt lat="46.85781" lon="-0.97663">
        <ele>127</ele>
        <time>2010-01-01T05:08:52Z</time>
      </trkpt>
      <trkpt lat="46.85688" lon="-0.97742">
        <ele>127</ele>
        <time>2010-01-01T05:09:35Z</time>
      </trkpt>
      <trkpt lat="46.85532" lon="-0.9796">
        <ele>125</ele>
        <time>2010-01-01T05:11:01Z</time>
      </trkpt>
      <trkpt lat="46.85408" lon="-0.98101">
        <ele>128</ele>
        <time>2010-01-01T05:12:04Z</time>
      </trkpt>
      <trkpt lat="46.85333" lon="-0.98179">
        <ele>126</ele>
        <time>2010-01-01T05:12:41Z</time>
      </trkpt>
      <trkpt lat="46.85286" lon="-0.98248">
        <ele>124</ele>
        <time>2010-01-01T05:13:07Z</time>
      </trkpt>
      <trkpt lat="46.85183" lon="-0.98383">
        <ele>123</ele>
        <time>2010-01-01T05:14:03Z</time>
      </trkpt>
      <trkpt lat="46.85109" lon="-0.98514">
        <ele>122</ele>
        <time>2010-01-01T05:14:49Z</time>
      </trkpt>
      <trkpt lat="46.85096" lon="-0.98562">
        <ele>120</ele>
        <time>2010-01-01T05:15:03Z</time>
      </trkpt>
      <trkpt lat="46.85054" lon="-0.98596">
        <ele>120</ele>
        <time>2010-01-01T05:15:23Z</time>
      </trkpt>
      <trkpt lat="46.85008" lon="-0.98628">
        <ele>120</ele>
        <time>2010-01-01T05:15:43Z</time>
      </trkpt>
      <trkpt lat="46.84967" lon="-0.98669">
        <ele>120</ele>
        <time>2010-01-01T05:16:03Z</time>
      </trkpt>
      <trkpt lat="46.8492" lon="-0.98701">
        <ele>119</ele>
        <time>2010-01-01T05:16:24Z</time>
      </trkpt>
      <trkpt lat="46.84809" lon="-0.98772">
        <ele>122</ele>
        <time>2010-01-01T05:17:12Z</time>
      </trkpt>
      <trkpt lat="46.84741" lon="-0.98845">
        <ele>122</ele>
        <time>2010-01-01T05:17:46Z</time>
      </trkpt>
      <trkpt lat="46.84665" lon="-0.9892">
        <ele>121</ele>
        <time>2010-01-01T05:18:23Z</time>
      </trkpt>
      <trkpt lat="46.84577" lon="-0.9904">
        <ele>120</ele>
        <time>2010-01-01T05:19:11Z</time>
      </trkpt>
      <trkpt lat="46.84653" lon="-0.99193">
        <ele>119</ele>
        <time>2010-01-01T05:20:03Z</time>
      </trkpt>
      <trkpt lat="46.8467" lon="-0.99266">
        <ele>119</ele>
        <time>2010-01-01T05:20:24Z</time>
      </trkpt>
      <trkpt lat="46.84705" lon="-0.99378">
        <ele>118</ele>
        <time>2010-01-01T05:20:58Z</time>
      </trkpt>
      <trkpt lat="46.84726" lon="-0.99407">
        <ele>118</ele>
        <time>2010-01-01T05:21:09Z</time>
      </trkpt>
      <trkpt lat="46.84787" lon="-0.99472">
        <ele>120</ele>
        <time>2010-01-01T05:21:39Z</time>
      </trkpt>
      <trkpt lat="46.84964" lon="-0.99853">
        <ele>117</ele>
        <time>2010-01-01T05:23:45Z</time>
      </trkpt>
      <trkpt lat="46.84983" lon="-1.00186">
        <ele>114</ele>
        <time>2010-01-01T05:25:17Z</time>
      </trkpt>
      <trkpt lat="46.85219" lon="-1.00534">
        <ele>110</ele>
        <time>2010-01-01T05:27:31Z</time>
      </trkpt>
      <trkpt lat="46.85539" lon="-1.00697">
        <ele>107</ele>
        <time>2010-01-01T05:29:47Z</time>
      </trkpt>
      <trkpt lat="46.8583" lon="-1.00907">
        <ele>113</ele>
        <time>2010-01-01T05:31:56Z</time>
      </trkpt>
      <trkpt lat="46.85949" lon="-1.00982">
        <ele>113</ele>
        <time>2010-01-01T05:32:48Z</time>
      </trkpt>
      <trkpt lat="46.86093" lon="-1.00761">
        <ele>116</ele>
        <time>2010-01-01T05:34:12Z</time>
      </trkpt>
      <trkpt lat="46.86205" lon="-1.00697">
        <ele>118</ele>
        <time>2010-01-01T05:35:00Z</time>
      </trkpt>
      <trkpt lat="46.86302" lon="-1.00645">
        <ele>120</ele>
        <time>2010-01-01T05:35:42Z</time>
      </trkpt>
      <trkpt lat="46.86349" lon="-1.00598">
        <ele>120</ele>
        <time>2010-01-01T05:36:04Z</time>
      </trkpt>
      <trkpt lat="46.86393" lon="-1.00561">
        <ele>120</ele>
        <time>2010-01-01T05:36:25Z</time>
      </trkpt>
      <trkpt lat="46.86448" lon="-1.00561">
        <ele>122</ele>
        <time>2010-01-01T05:36:46Z</time>
      </trkpt>
      <trkpt lat="46.86471" lon="-1.00495">
        <ele>120</ele>
        <time>2010-01-01T05:37:07Z</time>
      </trkpt>
      <trkpt lat="46.86517" lon="-1.00514">
        <ele>120</ele>
        <time>2010-01-01T05:37:26Z</time>
      </trkpt>
    </trkseg>
  </trk>
</gpx>